<?xml version='1.0' encoding='UTF-8'?><gpx version="1.1" creator="JPX - https://github.com/jenetics/jpx" xmlns="http://www.topografix.com/GPX/1/1"><trk><trkseg><trkpt lat="45.77466913024842" lon="11.443033873818031"><ele>266.0</ele><time>2026-04-22T15:26:16Z</time></trkpt><trkpt lat="45.77459793910549" lon="11.443053851087434"><ele>266.0</ele><time>2026-04-22T15:26:30Z</time></trkpt><trkpt lat="45.7745319299478" lon="11.443002742229934"><ele>266.0</ele><time>2026-04-22T15:26:36Z</time></trkpt><trkpt lat="45.7744717108468" lon="11.442958235976297"><ele>266.0</ele><time>2026-04-22T15:26:40Z</time></trkpt><trkpt lat="45.77441609029445" lon="11.442888513851681"><ele>266.0</ele><time>2026-04-22T15:26:45Z</time></trkpt><trkpt lat="45.774351549001835" lon="11.442830300491018"><ele>266.0</ele><time>2026-04-22T15:26:51Z</time></trkpt><trkpt lat="45.774279599713516" lon="11.442772215981266"><ele>266.0</ele><time>2026-04-22T15:26:56Z</time></trkpt><trkpt lat="45.774216884967764" lon="11.442721733639486"><ele>266.0</ele><time>2026-04-22T15:27:01Z</time></trkpt><trkpt lat="45.77415522014228" lon="11.442669124096527"><ele>266.0</ele><time>2026-04-22T15:27:07Z</time></trkpt><trkpt lat="45.77409779740116" lon="11.44261860584443"><ele>266.0</ele><time>2026-04-22T15:27:12Z</time></trkpt><trkpt lat="45.77404645934577" lon="11.442539888891455"><ele>266.0</ele><time>2026-04-22T15:27:17Z</time></trkpt><trkpt lat="45.77397709013009" lon="11.44248494617819"><ele>266.0</ele><time>2026-04-22T15:27:22Z</time></trkpt><trkpt lat="45.77391881928518" lon="11.442436393031905"><ele>266.0</ele><time>2026-04-22T15:27:27Z</time></trkpt><trkpt lat="45.77386025132112" lon="11.44238296181344"><ele>266.0</ele><time>2026-04-22T15:27:32Z</time></trkpt><trkpt lat="45.773800233609975" lon="11.442327754201857"><ele>266.0</ele><time>2026-04-22T15:27:37Z</time></trkpt><trkpt lat="45.77372434720507" lon="11.44229948560038"><ele>266.0</ele><time>2026-04-22T15:27:42Z</time></trkpt><trkpt lat="45.77365480311593" lon="11.442289433774597"><ele>266.0</ele><time>2026-04-22T15:27:47Z</time></trkpt><trkpt lat="45.77359751328735" lon="11.442349568749878"><ele>266.0</ele><time>2026-04-22T15:27:52Z</time></trkpt><trkpt lat="45.77355226913504" lon="11.442432463455173"><ele>266.0</ele><time>2026-04-22T15:27:57Z</time></trkpt><trkpt lat="45.7735221755183" lon="11.442519103825173"><ele>266.0</ele><time>2026-04-22T15:28:02Z</time></trkpt><trkpt lat="45.77349324979306" lon="11.44260494828182"><ele>266.0</ele><time>2026-04-22T15:28:07Z</time></trkpt><trkpt lat="45.7734597484745" lon="11.442691680167572"><ele>265.85714285714283</ele><time>2026-04-22T15:28:13Z</time></trkpt><trkpt lat="45.7734210806215" lon="11.442784031968992"><ele>265.7142857142857</ele><time>2026-04-22T15:28:19Z</time></trkpt><trkpt lat="45.77338906904851" lon="11.44287993368638"><ele>265.57142857142856</ele><time>2026-04-22T15:28:24Z</time></trkpt><trkpt lat="45.77337535021461" lon="11.442975058947006"><ele>265.42857142857144</ele><time>2026-04-22T15:28:28Z</time></trkpt><trkpt lat="45.773341467157316" lon="11.44305832524803"><ele>265.2857142857143</ele><time>2026-04-22T15:28:32Z</time></trkpt><trkpt lat="45.77332292924931" lon="11.443165050605286"><ele>265.1428571428571</ele><time>2026-04-22T15:28:37Z</time></trkpt><trkpt lat="45.77330333090945" lon="11.443264874503729"><ele>265.0</ele><time>2026-04-22T15:28:42Z</time></trkpt><trkpt lat="45.77329097062749" lon="11.443368950462432"><ele>264.99999999999994</ele><time>2026-04-22T15:28:47Z</time></trkpt><trkpt lat="45.773269489142265" lon="11.443469295640194"><ele>265.0</ele><time>2026-04-22T15:28:52Z</time></trkpt><trkpt lat="45.77325614606775" lon="11.443566738512942"><ele>265.0</ele><time>2026-04-22T15:28:57Z</time></trkpt><trkpt lat="45.7732395117821" lon="11.443668205962883"><ele>265.0</ele><time>2026-04-22T15:29:02Z</time></trkpt><trkpt lat="45.77322628458712" lon="11.443769244414604"><ele>265.0</ele><time>2026-04-22T15:29:07Z</time></trkpt><trkpt lat="45.773211373556116" lon="11.443877460217665"><ele>264.99999999999994</ele><time>2026-04-22T15:29:12Z</time></trkpt><trkpt lat="45.77320316972978" lon="11.443976080528953"><ele>265.0</ele><time>2026-04-22T15:29:17Z</time></trkpt><trkpt lat="45.77318842766775" lon="11.444073787008573"><ele>265.1428571428571</ele><time>2026-04-22T15:29:22Z</time></trkpt><trkpt lat="45.77318440631932" lon="11.444165258205544"><ele>265.2857142857143</ele><time>2026-04-22T15:29:26Z</time></trkpt><trkpt lat="45.77316800349086" lon="11.444269707173804"><ele>265.42857142857144</ele><time>2026-04-22T15:29:31Z</time></trkpt><trkpt lat="45.77315916260953" lon="11.44437763013673"><ele>265.57142857142856</ele><time>2026-04-22T15:29:36Z</time></trkpt><trkpt lat="45.7731387000476" lon="11.444479508294544"><ele>265.7142857142857</ele><time>2026-04-22T15:29:41Z</time></trkpt><trkpt lat="45.773120348602184" lon="11.444580866346108"><ele>265.85714285714283</ele><time>2026-04-22T15:29:46Z</time></trkpt><trkpt lat="45.7730987387842" lon="11.444675796647331"><ele>266.0</ele><time>2026-04-22T15:29:51Z</time></trkpt><trkpt lat="45.77307678285274" lon="11.44477871288434"><ele>265.7142857142857</ele><time>2026-04-22T15:29:56Z</time></trkpt><trkpt lat="45.77306943262703" lon="11.444873546499691"><ele>265.42857142857144</ele><time>2026-04-22T15:30:01Z</time></trkpt><trkpt lat="45.773039623287694" lon="11.444970848690932"><ele>265.1428571428571</ele><time>2026-04-22T15:30:06Z</time></trkpt><trkpt lat="45.772996046564145" lon="11.445062799859178"><ele>264.8571428571429</ele><time>2026-04-22T15:30:11Z</time></trkpt><trkpt lat="45.77297260769799" lon="11.445159695735189"><ele>264.57142857142856</ele><time>2026-04-22T15:30:16Z</time></trkpt><trkpt lat="45.77294212931693" lon="11.445260430605904"><ele>264.2857142857143</ele><time>2026-04-22T15:30:21Z</time></trkpt><trkpt lat="45.77292274863858" lon="11.445358614467834"><ele>264.0</ele><time>2026-04-22T15:30:26Z</time></trkpt><trkpt lat="45.772886833064724" lon="11.445445139567076"><ele>264.1428571428571</ele><time>2026-04-22T15:30:30Z</time></trkpt><trkpt lat="45.77287448457827" lon="11.445539538479375"><ele>264.2857142857143</ele><time>2026-04-22T15:30:35Z</time></trkpt><trkpt lat="45.77284679631553" lon="11.44563617722453"><ele>264.42857142857144</ele><time>2026-04-22T15:30:40Z</time></trkpt><trkpt lat="45.77281303792102" lon="11.445725081352595"><ele>264.57142857142856</ele><time>2026-04-22T15:30:44Z</time></trkpt><trkpt lat="45.772804815393926" lon="11.445829241978666"><ele>264.7142857142857</ele><time>2026-04-22T15:30:49Z</time></trkpt><trkpt lat="45.772801234782484" lon="11.445940289625774"><ele>264.85714285714283</ele><time>2026-04-22T15:30:54Z</time></trkpt><trkpt lat="45.772822523603516" lon="11.44603363963793"><ele>265.0</ele><time>2026-04-22T15:30:59Z</time></trkpt><trkpt lat="45.77286215509211" lon="11.446131300955434"><ele>264.99999999999994</ele><time>2026-04-22T15:31:04Z</time></trkpt><trkpt lat="45.772906219413954" lon="11.446197350178062"><ele>265.0</ele><time>2026-04-22T15:31:08Z</time></trkpt><trkpt lat="45.77296305572745" lon="11.446262168405644"><ele>265.0</ele><time>2026-04-22T15:31:13Z</time></trkpt><trkpt lat="45.77300530259294" lon="11.446341199737201"><ele>265.0</ele><time>2026-04-22T15:31:18Z</time></trkpt><trkpt lat="45.7730621349739" lon="11.446410848489139"><ele>265.0</ele><time>2026-04-22T15:31:23Z</time></trkpt><trkpt lat="45.773122482224" lon="11.446479427805048"><ele>264.99999999999994</ele><time>2026-04-22T15:31:28Z</time></trkpt><trkpt lat="45.773173440292005" lon="11.4465640557688"><ele>265.0</ele><time>2026-04-22T15:31:33Z</time></trkpt><trkpt lat="45.773229224931264" lon="11.446631835940053"><ele>264.99999999999994</ele><time>2026-04-22T15:31:38Z</time></trkpt><trkpt lat="45.77326951106458" lon="11.446709553760238"><ele>265.0</ele><time>2026-04-22T15:31:43Z</time></trkpt><trkpt lat="45.77331431321309" lon="11.446792785525851"><ele>265.0</ele><time>2026-04-22T15:31:48Z</time></trkpt><trkpt lat="45.77335931258043" lon="11.446862885303617"><ele>265.0</ele><time>2026-04-22T15:31:53Z</time></trkpt><trkpt lat="45.77339625870563" lon="11.446951807933173"><ele>265.0</ele><time>2026-04-22T15:31:58Z</time></trkpt><trkpt lat="45.773447667414196" lon="11.447028168754443"><ele>264.99999999999994</ele><time>2026-04-22T15:32:03Z</time></trkpt><trkpt lat="45.7734863718508" lon="11.447123483427086"><ele>265.0</ele><time>2026-04-22T15:32:08Z</time></trkpt><trkpt lat="45.77352413803547" lon="11.44720278170765"><ele>264.99999999999994</ele><time>2026-04-22T15:32:13Z</time></trkpt><trkpt lat="45.773541356664005" lon="11.447302175112483"><ele>265.0</ele><time>2026-04-22T15:32:18Z</time></trkpt><trkpt lat="45.773593664909534" lon="11.447387988523662"><ele>265.0</ele><time>2026-04-22T15:32:23Z</time></trkpt><trkpt lat="45.77360400703647" lon="11.44748268698723"><ele>265.0</ele><time>2026-04-22T15:32:28Z</time></trkpt><trkpt lat="45.773649536091035" lon="11.447545885534606"><ele>265.0</ele><time>2026-04-22T15:32:32Z</time></trkpt><trkpt lat="45.773649443042444" lon="11.447638120463514"><ele>264.99999999999994</ele><time>2026-04-22T15:32:36Z</time></trkpt><trkpt lat="45.773661170698084" lon="11.447728345690155"><ele>265.0</ele><time>2026-04-22T15:32:41Z</time></trkpt><trkpt lat="45.773645893033276" lon="11.447828048672427"><ele>264.99999999999994</ele><time>2026-04-22T15:32:46Z</time></trkpt><trkpt lat="45.77364681082815" lon="11.447919151465241"><ele>265.0</ele><time>2026-04-22T15:32:50Z</time></trkpt><trkpt lat="45.773632029158875" lon="11.448017690281233"><ele>265.0</ele><time>2026-04-22T15:32:55Z</time></trkpt><trkpt lat="45.77361412661901" lon="11.448110836550038"><ele>265.0</ele><time>2026-04-22T15:33:00Z</time></trkpt><trkpt lat="45.77360368897272" lon="11.448213131221433"><ele>265.0</ele><time>2026-04-22T15:33:10Z</time></trkpt><trkpt lat="45.77361132328315" lon="11.448314102006966"><ele>264.99999999999994</ele><time>2026-04-22T15:34:15Z</time></trkpt><trkpt lat="45.77363549739862" lon="11.448414056527774"><ele>265.0</ele><time>2026-04-22T15:34:20Z</time></trkpt><trkpt lat="45.773666740691795" lon="11.448510586478545"><ele>264.85714285714283</ele><time>2026-04-22T15:34:25Z</time></trkpt><trkpt lat="45.77370770945098" lon="11.44859403620574"><ele>264.7142857142857</ele><time>2026-04-22T15:34:30Z</time></trkpt><trkpt lat="45.77375397212213" lon="11.448656127122456"><ele>264.57142857142856</ele><time>2026-04-22T15:34:36Z</time></trkpt><trkpt lat="45.77379355035401" lon="11.448727831905266"><ele>264.42857142857144</ele><time>2026-04-22T15:34:46Z</time></trkpt><trkpt lat="45.773843979047896" lon="11.448790201953324"><ele>264.2857142857143</ele><time>2026-04-22T15:34:51Z</time></trkpt><trkpt lat="45.77387747972699" lon="11.448871820880536"><ele>264.1428571428571</ele><time>2026-04-22T15:34:55Z</time></trkpt><trkpt lat="45.7739229166984" lon="11.448940121832958"><ele>264.0</ele><time>2026-04-22T15:34:59Z</time></trkpt><trkpt lat="45.7739827451455" lon="11.448986518444878"><ele>263.85714285714283</ele><time>2026-04-22T15:35:03Z</time></trkpt><trkpt lat="45.774026886436424" lon="11.449069719800782"><ele>263.7142857142857</ele><time>2026-04-22T15:35:08Z</time></trkpt><trkpt lat="45.774081967992004" lon="11.449115164867472"><ele>263.57142857142856</ele><time>2026-04-22T15:35:13Z</time></trkpt><trkpt lat="45.77413516308388" lon="11.449173431000322"><ele>263.42857142857144</ele><time>2026-04-22T15:35:18Z</time></trkpt><trkpt lat="45.77419108894204" lon="11.449223730677337"><ele>263.2857142857143</ele><time>2026-04-22T15:35:23Z</time></trkpt><trkpt lat="45.77425103500022" lon="11.449288024866611"><ele>263.1428571428571</ele><time>2026-04-22T15:35:28Z</time></trkpt><trkpt lat="45.77430448920069" lon="11.449349096143289"><ele>263.0</ele><time>2026-04-22T15:35:33Z</time></trkpt><trkpt lat="45.774365462336256" lon="11.44941371529255"><ele>263.2857142857143</ele><time>2026-04-22T15:35:39.001Z</time></trkpt><trkpt lat="45.77441563448549" lon="11.449480643948716"><ele>263.57142857142856</ele><time>2026-04-22T15:35:44.001Z</time></trkpt><trkpt lat="45.774467847924086" lon="11.449549436810898"><ele>263.85714285714283</ele><time>2026-04-22T15:35:49.001Z</time></trkpt><trkpt lat="45.77452724692636" lon="11.449593657351008"><ele>264.1428571428571</ele><time>2026-04-22T15:35:53Z</time></trkpt><trkpt lat="45.774586547344" lon="11.449645284840425"><ele>264.42857142857144</ele><time>2026-04-22T15:35:58Z</time></trkpt><trkpt lat="45.77461715733726" lon="11.449736332648229"><ele>264.71428571428567</ele><time>2026-04-22T15:36:06Z</time></trkpt><trkpt lat="45.774651523804415" lon="11.449816009442973"><ele>265.0</ele><time>2026-04-22T15:36:09Z</time></trkpt><trkpt lat="45.774718124251464" lon="11.44978774870817"><ele>264.99999999999994</ele><time>2026-04-22T15:36:13Z</time></trkpt><trkpt lat="45.774776493950235" lon="11.449824595148065"><ele>265.0</ele><time>2026-04-22T15:36:17Z</time></trkpt><trkpt lat="45.77484100869157" lon="11.449872903188156"><ele>265.0</ele><time>2026-04-22T15:36:22Z</time></trkpt><trkpt lat="45.77491145608195" lon="11.449915592689937"><ele>265.0</ele><time>2026-04-22T15:36:27Z</time></trkpt><trkpt lat="45.77497552922338" lon="11.449965111569874"><ele>265.0</ele><time>2026-04-22T15:36:32Z</time></trkpt><trkpt lat="45.775036086661345" lon="11.450014423436736"><ele>264.99999999999994</ele><time>2026-04-22T15:36:37Z</time></trkpt><trkpt lat="45.775098199905464" lon="11.450065418828284"><ele>265.0</ele><time>2026-04-22T15:36:42Z</time></trkpt><trkpt lat="45.7751709463763" lon="11.450090127178923"><ele>266.1428571428571</ele><time>2026-04-22T15:36:47Z</time></trkpt><trkpt lat="45.77524204503405" lon="11.4500954092108"><ele>267.2857142857143</ele><time>2026-04-22T15:36:52Z</time></trkpt><trkpt lat="45.77531320687299" lon="11.45011748371214"><ele>268.42857142857144</ele><time>2026-04-22T15:36:57Z</time></trkpt><trkpt lat="45.775385646408104" lon="11.450152521882838"><ele>269.57142857142856</ele><time>2026-04-22T15:37:03Z</time></trkpt><trkpt lat="45.77545430640075" lon="11.45018167021059"><ele>270.7142857142857</ele><time>2026-04-22T15:37:08Z</time></trkpt><trkpt lat="45.7755233555831" lon="11.450212055299762"><ele>271.85714285714283</ele><time>2026-04-22T15:37:13Z</time></trkpt><trkpt lat="45.77558968687039" lon="11.45024597316781"><ele>273.0</ele><time>2026-04-22T15:37:18Z</time></trkpt><trkpt lat="45.77564486824312" lon="11.450298948270914"><ele>273.0</ele><time>2026-04-22T15:37:23Z</time></trkpt><trkpt lat="45.77570884345755" lon="11.45035087322322"><ele>273.0</ele><time>2026-04-22T15:37:29Z</time></trkpt><trkpt lat="45.775773928867935" lon="11.4503831735487"><ele>273.0</ele><time>2026-04-22T15:37:36Z</time></trkpt><trkpt lat="45.775819746914834" lon="11.450449760489299"><ele>273.0</ele><time>2026-04-22T15:37:45.001Z</time></trkpt><trkpt lat="45.77583011214728" lon="11.45053890809916"><ele>273.0</ele><time>2026-04-22T15:37:58Z</time></trkpt><trkpt lat="45.77583199657887" lon="11.45064713971423"><ele>273.0</ele><time>2026-04-22T15:38:16Z</time></trkpt><trkpt lat="45.77581805464481" lon="11.45073593624239"><ele>273.0</ele><time>2026-04-22T15:38:23Z</time></trkpt><trkpt lat="45.775798250393855" lon="11.450829433767389"><ele>273.42857142857144</ele><time>2026-04-22T15:38:29Z</time></trkpt><trkpt lat="45.775776303574325" lon="11.450917190250532"><ele>273.8571428571429</ele><time>2026-04-22T15:38:35Z</time></trkpt><trkpt lat="45.77574742330435" lon="11.451007731216903"><ele>274.2857142857143</ele><time>2026-04-22T15:38:41Z</time></trkpt><trkpt lat="45.77572066369994" lon="11.451098904064487"><ele>274.7142857142857</ele><time>2026-04-22T15:38:47Z</time></trkpt><trkpt lat="45.775681357932754" lon="11.451193226575535"><ele>275.14285714285717</ele><time>2026-04-22T15:38:53Z</time></trkpt><trkpt lat="45.775631228057826" lon="11.451250996111147"><ele>275.57142857142856</ele><time>2026-04-22T15:38:58Z</time></trkpt><trkpt lat="45.77556932004662" lon="11.451301250353145"><ele>276.0</ele><time>2026-04-22T15:39:03Z</time></trkpt><trkpt lat="45.77550895001469" lon="11.451331629246079"><ele>277.14285714285717</ele><time>2026-04-22T15:39:07Z</time></trkpt><trkpt lat="45.77544058430951" lon="11.451333338530011"><ele>278.28571428571433</ele><time>2026-04-22T15:39:12Z</time></trkpt><trkpt lat="45.77547699889668" lon="11.451408351557513"><ele>279.42857142857144</ele><time>2026-04-22T15:39:17Z</time></trkpt><trkpt lat="45.77553857915389" lon="11.451468006178157"><ele>280.57142857142856</ele><time>2026-04-22T15:39:24Z</time></trkpt><trkpt lat="45.77559471735944" lon="11.451513841236675"><ele>281.71428571428567</ele><time>2026-04-22T15:39:31Z</time></trkpt><trkpt lat="45.775655707163764" lon="11.451557890136465"><ele>282.85714285714283</ele><time>2026-04-22T15:39:39Z</time></trkpt><trkpt lat="45.77571297555211" lon="11.451611377766138"><ele>284.0</ele><time>2026-04-22T15:39:55.001Z</time></trkpt><trkpt lat="45.77576590852907" lon="11.451662604310002"><ele>284.0</ele><time>2026-04-22T15:40:01Z</time></trkpt><trkpt lat="45.77582906805703" lon="11.451709265330942"><ele>284.0</ele><time>2026-04-22T15:40:08Z</time></trkpt><trkpt lat="45.77588796824953" lon="11.45175462004571"><ele>284.0</ele><time>2026-04-22T15:40:15Z</time></trkpt><trkpt lat="45.775951411324534" lon="11.451783432556583"><ele>284.0</ele><time>2026-04-22T15:40:22Z</time></trkpt><trkpt lat="45.77601801251691" lon="11.451796694558587"><ele>284.0</ele><time>2026-04-22T15:40:27Z</time></trkpt><trkpt lat="45.77608015045899" lon="11.451821743856385"><ele>284.0</ele><time>2026-04-22T15:40:33Z</time></trkpt><trkpt lat="45.77615199158403" lon="11.451844386934967"><ele>284.0</ele><time>2026-04-22T15:40:40Z</time></trkpt><trkpt lat="45.77621908303893" lon="11.451862542362138"><ele>286.0</ele><time>2026-04-22T15:40:46Z</time></trkpt><trkpt lat="45.77627542253459" lon="11.451918906105009"><ele>288.0</ele><time>2026-04-22T15:40:52Z</time></trkpt><trkpt lat="45.776318259149825" lon="11.451993872953482"><ele>290.0</ele><time>2026-04-22T15:40:58Z</time></trkpt><trkpt lat="45.77636231025348" lon="11.452073189099128"><ele>292.0</ele><time>2026-04-22T15:41:06Z</time></trkpt><trkpt lat="45.776397403175395" lon="11.45215002922951"><ele>294.0</ele><time>2026-04-22T15:41:13Z</time></trkpt><trkpt lat="45.77644798915907" lon="11.452217664349176"><ele>296.0</ele><time>2026-04-22T15:41:20Z</time></trkpt><trkpt lat="45.776502060008404" lon="11.452280427120565"><ele>298.0</ele><time>2026-04-22T15:41:27Z</time></trkpt><trkpt lat="45.776561879605495" lon="11.452341683771891"><ele>299.57142857142856</ele><time>2026-04-22T15:41:34Z</time></trkpt><trkpt lat="45.776615569583264" lon="11.45239630486592"><ele>301.1428571428571</ele><time>2026-04-22T15:41:40Z</time></trkpt><trkpt lat="45.776660228528215" lon="11.452469949335125"><ele>302.7142857142857</ele><time>2026-04-22T15:41:46Z</time></trkpt><trkpt lat="45.776683815650564" lon="11.452555792505095"><ele>304.2857142857143</ele><time>2026-04-22T15:41:54Z</time></trkpt><trkpt lat="45.776693878593626" lon="11.452645230149965"><ele>305.8571428571429</ele><time>2026-04-22T15:42:00Z</time></trkpt><trkpt lat="45.77669978382521" lon="11.45274628780719"><ele>307.42857142857144</ele><time>2026-04-22T15:42:07Z</time></trkpt><trkpt lat="45.7767089280796" lon="11.452835940631449"><ele>309.0</ele><time>2026-04-22T15:42:12Z</time></trkpt><trkpt lat="45.776712116461425" lon="11.452929450002646"><ele>310.14285714285717</ele><time>2026-04-22T15:42:18Z</time></trkpt><trkpt lat="45.77671514558055" lon="11.45303857195106"><ele>311.2857142857143</ele><time>2026-04-22T15:42:24Z</time></trkpt><trkpt lat="45.77673595667105" lon="11.453131477011615"><ele>312.42857142857144</ele><time>2026-04-22T15:42:30Z</time></trkpt><trkpt lat="45.77675706110433" lon="11.453217732530893"><ele>313.57142857142856</ele><time>2026-04-22T15:42:35Z</time></trkpt><trkpt lat="45.77681877269202" lon="11.453271020625143"><ele>314.7142857142857</ele><time>2026-04-22T15:42:42Z</time></trkpt><trkpt lat="45.77687045602381" lon="11.45333694544383"><ele>315.8571428571429</ele><time>2026-04-22T15:42:49Z</time></trkpt><trkpt lat="45.77693616394664" lon="11.45338602387859"><ele>317.0</ele><time>2026-04-22T15:42:57Z</time></trkpt><trkpt lat="45.77699200310562" lon="11.453442830319165"><ele>320.42857142857144</ele><time>2026-04-22T15:43:05Z</time></trkpt><trkpt lat="45.77704632523697" lon="11.453496820084938"><ele>323.85714285714283</ele><time>2026-04-22T15:43:11Z</time></trkpt><trkpt lat="45.777098922077826" lon="11.45355940036654"><ele>327.2857142857143</ele><time>2026-04-22T15:43:17Z</time></trkpt><trkpt lat="45.77710638397854" lon="11.453651901242688"><ele>330.7142857142857</ele><time>2026-04-22T15:43:25Z</time></trkpt><trkpt lat="45.77705544446137" lon="11.453712849352286"><ele>334.14285714285717</ele><time>2026-04-22T15:43:35Z</time></trkpt><trkpt lat="45.77699128471223" lon="11.453753521673203"><ele>337.57142857142856</ele><time>2026-04-22T15:43:44Z</time></trkpt><trkpt lat="45.77695597056433" lon="11.453831893257183"><ele>341.0</ele><time>2026-04-22T15:43:50Z</time></trkpt><trkpt lat="45.776888808775915" lon="11.453867202055411"><ele>340.7142857142857</ele><time>2026-04-22T15:43:55.999Z</time></trkpt><trkpt lat="45.776852314819486" lon="11.453941909193247"><ele>340.42857142857144</ele><time>2026-04-22T15:44:02Z</time></trkpt><trkpt lat="45.77680147938455" lon="11.454002492694645"><ele>340.1428571428571</ele><time>2026-04-22T15:44:07Z</time></trkpt><trkpt lat="45.776755341052926" lon="11.454066105722072"><ele>339.8571428571429</ele><time>2026-04-22T15:44:14Z</time></trkpt><trkpt lat="45.776715695762995" lon="11.45414666925173"><ele>339.5714285714286</ele><time>2026-04-22T15:44:21Z</time></trkpt><trkpt lat="45.77667305083964" lon="11.454224816888274"><ele>339.2857142857143</ele><time>2026-04-22T15:44:29Z</time></trkpt><trkpt lat="45.77663723585867" lon="11.454302062771161"><ele>339.0</ele><time>2026-04-22T15:44:34Z</time></trkpt><trkpt lat="45.77660956180901" lon="11.454383801880999"><ele>339.0</ele><time>2026-04-22T15:44:40Z</time></trkpt><trkpt lat="45.77659228902882" lon="11.454478639157031"><ele>339.0</ele><time>2026-04-22T15:44:46Z</time></trkpt><trkpt lat="45.77658450351242" lon="11.45458133282821"><ele>339.0</ele><time>2026-04-22T15:44:52Z</time></trkpt><trkpt lat="45.776584507602195" lon="11.45468494690052"><ele>339.0</ele><time>2026-04-22T15:44:58Z</time></trkpt><trkpt lat="45.77658183684975" lon="11.454782460697585"><ele>339.0</ele><time>2026-04-22T15:45:04Z</time></trkpt><trkpt lat="45.77659047000664" lon="11.454874367116874"><ele>339.0</ele><time>2026-04-22T15:45:10Z</time></trkpt><trkpt lat="45.776598280953905" lon="11.454973722041204"><ele>339.0</ele><time>2026-04-22T15:45:16Z</time></trkpt><trkpt lat="45.77660765439417" lon="11.455070288138696"><ele>341.0</ele><time>2026-04-22T15:45:23Z</time></trkpt><trkpt lat="45.77662493339777" lon="11.455161466593424"><ele>343.0</ele><time>2026-04-22T15:45:29Z</time></trkpt><trkpt lat="45.776646205703244" lon="11.455263229403142"><ele>345.0</ele><time>2026-04-22T15:45:35Z</time></trkpt><trkpt lat="45.77667272070366" lon="11.455366183847577"><ele>347.0</ele><time>2026-04-22T15:45:41Z</time></trkpt><trkpt lat="45.776695189407995" lon="11.455451615991283"><ele>349.0</ele><time>2026-04-22T15:45:46Z</time></trkpt><trkpt lat="45.77671446278112" lon="11.455540174488167"><ele>351.0</ele><time>2026-04-22T15:45:50Z</time></trkpt><trkpt lat="45.776745648432055" lon="11.455627940604037"><ele>353.0</ele><time>2026-04-22T15:45:55Z</time></trkpt><trkpt lat="45.776775796178775" lon="11.455708919006359"><ele>353.2857142857143</ele><time>2026-04-22T15:45:59.999Z</time></trkpt><trkpt lat="45.7767978710367" lon="11.455793884584017"><ele>353.5714285714286</ele><time>2026-04-22T15:46:05Z</time></trkpt><trkpt lat="45.776808231584894" lon="11.455887554284388"><ele>353.8571428571429</ele><time>2026-04-22T15:46:12Z</time></trkpt><trkpt lat="45.77681683468791" lon="11.455985287561496"><ele>354.1428571428571</ele><time>2026-04-22T15:46:18Z</time></trkpt><trkpt lat="45.776846496338926" lon="11.456065466995769"><ele>354.42857142857144</ele><time>2026-04-22T15:46:25Z</time></trkpt><trkpt lat="45.77683760075479" lon="11.4561651614545"><ele>354.7142857142857</ele><time>2026-04-22T15:46:35Z</time></trkpt><trkpt lat="45.77683994535893" lon="11.456261695215824"><ele>355.0</ele><time>2026-04-22T15:46:42Z</time></trkpt><trkpt lat="45.77685406151781" lon="11.456364269266524"><ele>359.1428571428571</ele><time>2026-04-22T15:46:48Z</time></trkpt><trkpt lat="45.776859168004464" lon="11.456457099433566"><ele>363.2857142857143</ele><time>2026-04-22T15:46:53Z</time></trkpt><trkpt lat="45.77688182730239" lon="11.456557525644236"><ele>367.42857142857144</ele><time>2026-04-22T15:46:59Z</time></trkpt><trkpt lat="45.77689568042835" lon="11.456648727730462"><ele>371.57142857142856</ele><time>2026-04-22T15:47:04Z</time></trkpt><trkpt lat="45.776918128291506" lon="11.45674318957234"><ele>375.7142857142857</ele><time>2026-04-22T15:47:09Z</time></trkpt><trkpt lat="45.7769358703638" lon="11.456846100127393"><ele>379.85714285714283</ele><time>2026-04-22T15:47:15Z</time></trkpt><trkpt lat="45.77695333371891" lon="11.456952431330759"><ele>384.0</ele><time>2026-04-22T15:47:21Z</time></trkpt><trkpt lat="45.776970565013336" lon="11.457048734641942"><ele>383.85714285714283</ele><time>2026-04-22T15:47:27Z</time></trkpt><trkpt lat="45.77698579140411" lon="11.45715037018647"><ele>383.7142857142857</ele><time>2026-04-22T15:47:33Z</time></trkpt><trkpt lat="45.77701949130968" lon="11.457245744445055"><ele>383.57142857142856</ele><time>2026-04-22T15:47:38Z</time></trkpt><trkpt lat="45.777017951588874" lon="11.457342834486118"><ele>383.42857142857144</ele><time>2026-04-22T15:47:43Z</time></trkpt><trkpt lat="45.77704448443484" lon="11.457427018336396"><ele>383.2857142857143</ele><time>2026-04-22T15:47:47.999Z</time></trkpt><trkpt lat="45.777073136212536" lon="11.457512114240263"><ele>383.1428571428571</ele><time>2026-04-22T15:47:52.999Z</time></trkpt><trkpt lat="45.777088995794806" lon="11.457615448088584"><ele>383.0</ele><time>2026-04-22T15:47:58.999Z</time></trkpt><trkpt lat="45.77711241712943" lon="11.457711159857377"><ele>383.0</ele><time>2026-04-22T15:48:03.999Z</time></trkpt><trkpt lat="45.777137952161524" lon="11.457793818268632"><ele>383.0</ele><time>2026-04-22T15:48:07.999Z</time></trkpt><trkpt lat="45.777180763943115" lon="11.45786368779235"><ele>383.0</ele><time>2026-04-22T15:48:13Z</time></trkpt><trkpt lat="45.77721791280066" lon="11.45794962998647"><ele>383.0</ele><time>2026-04-22T15:48:19Z</time></trkpt><trkpt lat="45.777261427001704" lon="11.458022161372487"><ele>383.0</ele><time>2026-04-22T15:48:24Z</time></trkpt><trkpt lat="45.77730018312819" lon="11.458112021176456"><ele>383.0</ele><time>2026-04-22T15:48:29Z</time></trkpt><trkpt lat="45.77735083893392" lon="11.458186710734424"><ele>383.0</ele><time>2026-04-22T15:48:35Z</time></trkpt><trkpt lat="45.77737697578155" lon="11.458274551564452"><ele>382.57142857142856</ele><time>2026-04-22T15:48:40Z</time></trkpt><trkpt lat="45.77740927027571" lon="11.458358190200594"><ele>382.1428571428571</ele><time>2026-04-22T15:48:45Z</time></trkpt><trkpt lat="45.77742589900469" lon="11.458457498350729"><ele>381.7142857142857</ele><time>2026-04-22T15:48:52Z</time></trkpt><trkpt lat="45.777445314917294" lon="11.45854964369925"><ele>381.2857142857143</ele><time>2026-04-22T15:48:57Z</time></trkpt><trkpt lat="45.77746450236745" lon="11.458639865581109"><ele>380.8571428571429</ele><time>2026-04-22T15:49:03Z</time></trkpt><trkpt lat="45.77747377433507" lon="11.458750643734264"><ele>380.42857142857144</ele><time>2026-04-22T15:49:09Z</time></trkpt><trkpt lat="45.77748611910705" lon="11.458846364037019"><ele>380.0</ele><time>2026-04-22T15:49:14Z</time></trkpt><trkpt lat="45.77749642548036" lon="11.45893699462449"><ele>380.0</ele><time>2026-04-22T15:49:19Z</time></trkpt><trkpt lat="45.7775100819505" lon="11.459037042689262"><ele>380.0</ele><time>2026-04-22T15:49:24Z</time></trkpt><trkpt lat="45.77752556898263" lon="11.459136041241607"><ele>380.0</ele><time>2026-04-22T15:49:29Z</time></trkpt><trkpt lat="45.77755088226353" lon="11.459231102283502"><ele>380.0</ele><time>2026-04-22T15:49:34Z</time></trkpt><trkpt lat="45.77758628118357" lon="11.45930785193717"><ele>380.0</ele><time>2026-04-22T15:49:39Z</time></trkpt><trkpt lat="45.77760607339617" lon="11.459396219052723"><ele>380.0</ele><time>2026-04-22T15:49:44Z</time></trkpt><trkpt lat="45.77761955098835" lon="11.459489106815775"><ele>380.0</ele><time>2026-04-22T15:49:49Z</time></trkpt><trkpt lat="45.77757365956465" lon="11.459591922727501"><ele>380.0</ele><time>2026-04-22T15:50:38Z</time></trkpt><trkpt lat="45.77756848617175" lon="11.459690438100427"><ele>380.0</ele><time>2026-04-22T15:50:48Z</time></trkpt><trkpt lat="45.777567317519164" lon="11.459787264812778"><ele>380.0</ele><time>2026-04-22T15:50:53Z</time></trkpt><trkpt lat="45.777562054139985" lon="11.459886700440121"><ele>380.0</ele><time>2026-04-22T15:51:00Z</time></trkpt><trkpt lat="45.77756159384654" lon="11.459984642988463"><ele>380.0</ele><time>2026-04-22T15:51:06Z</time></trkpt><trkpt lat="45.77756188933051" lon="11.460078901029574"><ele>380.0</ele><time>2026-04-22T15:51:12Z</time></trkpt><trkpt lat="45.77756614232698" lon="11.460175442630836"><ele>380.0</ele><time>2026-04-22T15:51:18Z</time></trkpt><trkpt lat="45.77756868283345" lon="11.460282659750218"><ele>380.0</ele><time>2026-04-22T15:51:26Z</time></trkpt><trkpt lat="45.77755554489458" lon="11.460375432184863"><ele>380.0</ele><time>2026-04-22T15:51:31Z</time></trkpt><trkpt lat="45.777524689220094" lon="11.460463265697502"><ele>380.0</ele><time>2026-04-22T15:51:36Z</time></trkpt><trkpt lat="45.777529588125695" lon="11.460573551301872"><ele>380.0</ele><time>2026-04-22T15:51:39Z</time></trkpt><trkpt lat="45.7775452613713" lon="11.460678603941336"><ele>380.0</ele><time>2026-04-22T15:51:44Z</time></trkpt><trkpt lat="45.77751456189179" lon="11.460770931853208"><ele>380.0</ele><time>2026-04-22T15:51:49Z</time></trkpt><trkpt lat="45.77748754846098" lon="11.460875325516986"><ele>380.0</ele><time>2026-04-22T15:51:55Z</time></trkpt><trkpt lat="45.777465087897646" lon="11.460977703245453"><ele>380.42857142857144</ele><time>2026-04-22T15:52:00Z</time></trkpt><trkpt lat="45.77743439855189" lon="11.46106019465433"><ele>380.8571428571429</ele><time>2026-04-22T15:52:06Z</time></trkpt><trkpt lat="45.777367590173434" lon="11.461075889432252"><ele>381.2857142857143</ele><time>2026-04-22T15:52:12Z</time></trkpt><trkpt lat="45.77729532994911" lon="11.461072241504612"><ele>381.7142857142857</ele><time>2026-04-22T15:52:18Z</time></trkpt><trkpt lat="45.777225497587516" lon="11.4610706365986"><ele>382.1428571428571</ele><time>2026-04-22T15:52:22Z</time></trkpt><trkpt lat="45.777159275679054" lon="11.461086888866577"><ele>382.57142857142856</ele><time>2026-04-22T15:52:27Z</time></trkpt><trkpt lat="45.77709887856328" lon="11.46113647324263"><ele>383.0</ele><time>2026-04-22T15:52:33Z</time></trkpt><trkpt lat="45.77706871892335" lon="11.461226597285728"><ele>384.0</ele><time>2026-04-22T15:52:40Z</time></trkpt><trkpt lat="45.777036972680804" lon="11.461305635781525"><ele>385.0</ele><time>2026-04-22T15:52:45Z</time></trkpt><trkpt lat="45.776992141425204" lon="11.461372944238976"><ele>386.0</ele><time>2026-04-22T15:52:50Z</time></trkpt><trkpt lat="45.776958103702405" lon="11.461464246251966"><ele>387.0</ele><time>2026-04-22T15:52:55Z</time></trkpt><trkpt lat="45.7769124619502" lon="11.46153056038275"><ele>388.0</ele><time>2026-04-22T15:53:00Z</time></trkpt><trkpt lat="45.776855680443795" lon="11.461600958725883"><ele>389.0</ele><time>2026-04-22T15:53:04Z</time></trkpt><trkpt lat="45.77680300706368" lon="11.461667027797617"><ele>390.0</ele><time>2026-04-22T15:53:09Z</time></trkpt><trkpt lat="45.776752710978684" lon="11.46173640421667"><ele>390.0</ele><time>2026-04-22T15:53:14Z</time></trkpt><trkpt lat="45.776694259346414" lon="11.461792561013612"><ele>390.0</ele><time>2026-04-22T15:53:19Z</time></trkpt><trkpt lat="45.77665074602363" lon="11.46187992308128"><ele>390.0</ele><time>2026-04-22T15:53:25Z</time></trkpt><trkpt lat="45.776608358665605" lon="11.461949190453021"><ele>390.0</ele><time>2026-04-22T15:53:30Z</time></trkpt><trkpt lat="45.77656957809537" lon="11.462022823153246"><ele>390.0</ele><time>2026-04-22T15:53:35Z</time></trkpt><trkpt lat="45.776535444203546" lon="11.462111065800041"><ele>390.0</ele><time>2026-04-22T15:53:40Z</time></trkpt><trkpt lat="45.77649521778225" lon="11.46219438550175"><ele>390.0</ele><time>2026-04-22T15:53:46Z</time></trkpt><trkpt lat="45.77645416447233" lon="11.462262839384465"><ele>391.1428571428571</ele><time>2026-04-22T15:53:51Z</time></trkpt><trkpt lat="45.77643704963073" lon="11.462358826713501"><ele>392.2857142857143</ele><time>2026-04-22T15:53:56Z</time></trkpt><trkpt lat="45.77642592397468" lon="11.46245135054168"><ele>393.42857142857144</ele><time>2026-04-22T15:54:01Z</time></trkpt><trkpt lat="45.77641944652063" lon="11.462544416464176"><ele>394.57142857142856</ele><time>2026-04-22T15:54:06Z</time></trkpt><trkpt lat="45.776444140372696" lon="11.462637333263475"><ele>395.7142857142857</ele><time>2026-04-22T15:54:11Z</time></trkpt><trkpt lat="45.776457837893034" lon="11.462726655544817"><ele>396.85714285714283</ele><time>2026-04-22T15:54:15.999Z</time></trkpt><trkpt lat="45.77645492514823" lon="11.46282057132037"><ele>398.0</ele><time>2026-04-22T15:54:20.999Z</time></trkpt><trkpt lat="45.776451991766834" lon="11.462920633139221"><ele>397.2857142857143</ele><time>2026-04-22T15:54:25.999Z</time></trkpt><trkpt lat="45.77645128389958" lon="11.463026194677008"><ele>396.57142857142856</ele><time>2026-04-22T15:54:32Z</time></trkpt><trkpt lat="45.7764746574183" lon="11.463110893817888"><ele>395.8571428571429</ele><time>2026-04-22T15:54:38Z</time></trkpt><trkpt lat="45.77650505549851" lon="11.46320382483683"><ele>395.1428571428571</ele><time>2026-04-22T15:54:43Z</time></trkpt><trkpt lat="45.77656517177332" lon="11.46326385327675"><ele>394.42857142857144</ele><time>2026-04-22T15:54:49Z</time></trkpt><trkpt lat="45.776628019193645" lon="11.463280876610428"><ele>393.7142857142857</ele><time>2026-04-22T15:54:53Z</time></trkpt><trkpt lat="45.77668899982262" lon="11.463303476866823"><ele>393.0</ele><time>2026-04-22T15:54:57Z</time></trkpt><trkpt lat="45.77675348129914" lon="11.4633125796337"><ele>393.00000000000006</ele><time>2026-04-22T15:55:02Z</time></trkpt><trkpt lat="45.77681808020238" lon="11.463370249827769"><ele>393.0</ele><time>2026-04-22T15:55:07Z</time></trkpt><trkpt lat="45.77688850142486" lon="11.463404864328796"><ele>393.0</ele><time>2026-04-22T15:55:12Z</time></trkpt><trkpt lat="45.77695638983549" lon="11.463435910432784"><ele>393.0</ele><time>2026-04-22T15:55:17Z</time></trkpt><trkpt lat="45.77702628890753" lon="11.463475410799502"><ele>393.0</ele><time>2026-04-22T15:55:22Z</time></trkpt><trkpt lat="45.77709249460789" lon="11.463520514153156"><ele>393.00000000000006</ele><time>2026-04-22T15:55:28Z</time></trkpt><trkpt lat="45.77715771814753" lon="11.463554596216746"><ele>393.0</ele><time>2026-04-22T15:55:32Z</time></trkpt><trkpt lat="45.77722605053729" lon="11.463579430472432"><ele>395.5714285714286</ele><time>2026-04-22T15:55:38Z</time></trkpt><trkpt lat="45.77729016422735" lon="11.463612947883531"><ele>398.14285714285717</ele><time>2026-04-22T15:55:43Z</time></trkpt><trkpt lat="45.777355518501686" lon="11.463627276477759"><ele>400.7142857142857</ele><time>2026-04-22T15:55:48Z</time></trkpt><trkpt lat="45.77742405036395" lon="11.463638092273628"><ele>403.28571428571433</ele><time>2026-04-22T15:55:52Z</time></trkpt><trkpt lat="45.77749195990884" lon="11.463656152638391"><ele>405.85714285714283</ele><time>2026-04-22T15:55:55Z</time></trkpt><trkpt lat="45.777554388346246" lon="11.463702839114562"><ele>408.42857142857144</ele><time>2026-04-22T15:56:00Z</time></trkpt><trkpt lat="45.77763001588845" lon="11.463717305815136"><ele>411.0</ele><time>2026-04-22T15:56:05Z</time></trkpt><trkpt lat="45.777697719020416" lon="11.463743327677166"><ele>412.57142857142856</ele><time>2026-04-22T15:56:10Z</time></trkpt><trkpt lat="45.77776732356039" lon="11.463806122770078"><ele>414.1428571428571</ele><time>2026-04-22T15:56:16Z</time></trkpt><trkpt lat="45.777826526154804" lon="11.463856583842537"><ele>415.7142857142857</ele><time>2026-04-22T15:56:21Z</time></trkpt><trkpt lat="45.77788968125147" lon="11.463917722862853"><ele>417.2857142857143</ele><time>2026-04-22T15:56:26Z</time></trkpt><trkpt lat="45.77794291213822" lon="11.463976104963075"><ele>418.8571428571429</ele><time>2026-04-22T15:56:31Z</time></trkpt><trkpt lat="45.77799668648938" lon="11.464055755188438"><ele>420.42857142857144</ele><time>2026-04-22T15:56:36Z</time></trkpt><trkpt lat="45.77804670401608" lon="11.464123848632978"><ele>422.0</ele><time>2026-04-22T15:56:41Z</time></trkpt><trkpt lat="45.77809741218101" lon="11.464179779323022"><ele>422.0</ele><time>2026-04-22T15:56:46Z</time></trkpt><trkpt lat="45.77815865206649" lon="11.46422515493299"><ele>422.0</ele><time>2026-04-22T15:56:52Z</time></trkpt><trkpt lat="45.77820877424743" lon="11.464287246793894"><ele>422.0</ele><time>2026-04-22T15:56:57Z</time></trkpt><trkpt lat="45.77823076857627" lon="11.464374185353764"><ele>422.0</ele><time>2026-04-22T15:57:02Z</time></trkpt><trkpt lat="45.7782780380112" lon="11.464458039986939"><ele>422.0</ele><time>2026-04-22T15:57:08Z</time></trkpt><trkpt lat="45.7782194006894" lon="11.464513617724979"><ele>422.0</ele><time>2026-04-22T15:57:15Z</time></trkpt><trkpt lat="45.778262475562485" lon="11.464591879107154"><ele>422.0</ele><time>2026-04-22T15:57:25Z</time></trkpt><trkpt lat="45.778255146990155" lon="11.464685931434387"><ele>421.7142857142857</ele><time>2026-04-22T15:57:31Z</time></trkpt><trkpt lat="45.77822791487304" lon="11.46477510294408"><ele>421.42857142857144</ele><time>2026-04-22T15:57:38Z</time></trkpt><trkpt lat="45.77819258984107" lon="11.464854818270666"><ele>421.1428571428571</ele><time>2026-04-22T15:57:45Z</time></trkpt><trkpt lat="45.77812669755091" lon="11.464876964646008"><ele>420.8571428571429</ele><time>2026-04-22T15:57:50Z</time></trkpt><trkpt lat="45.77806260826699" lon="11.464851293162983"><ele>420.57142857142856</ele><time>2026-04-22T15:57:59Z</time></trkpt><trkpt lat="45.77799978783749" lon="11.46487370715316"><ele>420.2857142857143</ele><time>2026-04-22T15:58:06Z</time></trkpt><trkpt lat="45.77793070350206" lon="11.464926013013885"><ele>420.0</ele><time>2026-04-22T15:58:11Z</time></trkpt><trkpt lat="45.77787111503521" lon="11.464974909573"><ele>420.0</ele><time>2026-04-22T15:58:16Z</time></trkpt><trkpt lat="45.77781413307045" lon="11.465014006522082"><ele>420.0</ele><time>2026-04-22T15:58:22Z</time></trkpt><trkpt lat="45.77774635332086" lon="11.465054014257095"><ele>420.0</ele><time>2026-04-22T15:58:27Z</time></trkpt><trkpt lat="45.777680076386886" lon="11.465069310365728"><ele>420.0</ele><time>2026-04-22T15:58:32Z</time></trkpt><trkpt lat="45.777614989619906" lon="11.465107486101289"><ele>420.0</ele><time>2026-04-22T15:58:38Z</time></trkpt><trkpt lat="45.777551984782576" lon="11.46513451747641"><ele>420.0</ele><time>2026-04-22T15:58:42Z</time></trkpt><trkpt lat="45.77749845589506" lon="11.465201700455266"><ele>420.0</ele><time>2026-04-22T15:58:48Z</time></trkpt><trkpt lat="45.77745576792421" lon="11.465291613417126"><ele>418.57142857142856</ele><time>2026-04-22T15:58:53Z</time></trkpt><trkpt lat="45.77739856494073" lon="11.46534412645392"><ele>417.1428571428571</ele><time>2026-04-22T15:58:58Z</time></trkpt><trkpt lat="45.77735019145236" lon="11.465403520557137"><ele>415.7142857142857</ele><time>2026-04-22T15:59:04Z</time></trkpt><trkpt lat="45.777303120325605" lon="11.465473720903313"><ele>414.2857142857143</ele><time>2026-04-22T15:59:09Z</time></trkpt><trkpt lat="45.77726917003395" lon="11.465558981212757"><ele>412.85714285714283</ele><time>2026-04-22T15:59:15Z</time></trkpt><trkpt lat="45.77723169280714" lon="11.465640065138057"><ele>411.42857142857144</ele><time>2026-04-22T15:59:20Z</time></trkpt><trkpt lat="45.77717531318891" lon="11.465689866364903"><ele>410.0</ele><time>2026-04-22T15:59:26Z</time></trkpt><trkpt lat="45.77714661215114" lon="11.465777501658675"><ele>413.7142857142857</ele><time>2026-04-22T15:59:31Z</time></trkpt><trkpt lat="45.77710476880988" lon="11.465847498656627"><ele>417.4285714285714</ele><time>2026-04-22T15:59:43Z</time></trkpt><trkpt lat="45.77707830704691" lon="11.465933545758675"><ele>421.1428571428571</ele><time>2026-04-22T15:59:48Z</time></trkpt><trkpt lat="45.77704095777741" lon="11.466013535124967"><ele>424.8571428571429</ele><time>2026-04-22T15:59:54Z</time></trkpt><trkpt lat="45.77700680991329" lon="11.466108740656585"><ele>428.57142857142856</ele><time>2026-04-22T16:00:00Z</time></trkpt><trkpt lat="45.7769615963798" lon="11.466182516115925"><ele>432.2857142857143</ele><time>2026-04-22T16:00:04Z</time></trkpt><trkpt lat="45.77692066102223" lon="11.466251553804335"><ele>436.0</ele><time>2026-04-22T16:00:09Z</time></trkpt><trkpt lat="45.776905039262225" lon="11.466344519361437"><ele>438.42857142857144</ele><time>2026-04-22T16:00:14Z</time></trkpt><trkpt lat="45.77697423678058" lon="11.466461263770354"><ele>440.8571428571429</ele><time>2026-04-22T16:00:41Z</time></trkpt><trkpt lat="45.777019076504985" lon="11.466532850807425"><ele>443.2857142857142</ele><time>2026-04-22T16:00:49Z</time></trkpt><trkpt lat="45.77708558764834" lon="11.466557847071135"><ele>445.71428571428567</ele><time>2026-04-22T16:00:58Z</time></trkpt><trkpt lat="45.77713154469381" lon="11.46662090761047"><ele>448.1428571428571</ele><time>2026-04-22T16:01:05Z</time></trkpt><trkpt lat="45.77706681699835" lon="11.46665853897071"><ele>450.5714285714285</ele><time>2026-04-22T16:01:16Z</time></trkpt><trkpt lat="45.777045103389355" lon="11.466757713346514"><ele>452.99999999999994</ele><time>2026-04-22T16:01:25Z</time></trkpt><trkpt lat="45.77708303534157" lon="11.466843525839746"><ele>452.99999999999994</ele><time>2026-04-22T16:01:30Z</time></trkpt><trkpt lat="45.77712542253592" lon="11.466923415921595"><ele>453.0</ele><time>2026-04-22T16:01:37Z</time></trkpt><trkpt lat="45.77714978316115" lon="11.46700985056199"><ele>452.99999999999994</ele><time>2026-04-22T16:01:43Z</time></trkpt><trkpt lat="45.77716726955357" lon="11.467105264530103"><ele>452.99999999999994</ele><time>2026-04-22T16:01:50Z</time></trkpt><trkpt lat="45.777188252233536" lon="11.467205813588166"><ele>453.0</ele><time>2026-04-22T16:01:56Z</time></trkpt><trkpt lat="45.77720558128263" lon="11.46730560162895"><ele>452.99999999999994</ele><time>2026-04-22T16:02:03Z</time></trkpt><trkpt lat="45.77723247051316" lon="11.46740041003697"><ele>452.99999999999994</ele><time>2026-04-22T16:02:09Z</time></trkpt><trkpt lat="45.777248787780856" lon="11.467501829835758"><ele>452.99999999999994</ele><time>2026-04-22T16:02:14Z</time></trkpt><trkpt lat="45.77726170508813" lon="11.467597074372797"><ele>453.0</ele><time>2026-04-22T16:02:19Z</time></trkpt><trkpt lat="45.77729923739116" lon="11.467691930672329"><ele>452.99999999999994</ele><time>2026-04-22T16:02:25Z</time></trkpt><trkpt lat="45.77734781866213" lon="11.467770138813975"><ele>452.99999999999994</ele><time>2026-04-22T16:02:31Z</time></trkpt><trkpt lat="45.77738438727451" lon="11.467847686146857"><ele>453.0</ele><time>2026-04-22T16:02:37Z</time></trkpt><trkpt lat="45.777397463605546" lon="11.467947050190276"><ele>452.99999999999994</ele><time>2026-04-22T16:02:43Z</time></trkpt><trkpt lat="45.77744007161815" lon="11.468031338810354"><ele>452.99999999999994</ele><time>2026-04-22T16:02:50Z</time></trkpt><trkpt lat="45.77748216545087" lon="11.4681055084339"><ele>452.99999999999994</ele><time>2026-04-22T16:02:55Z</time></trkpt><trkpt lat="45.77754789405293" lon="11.46812364784722"><ele>453.0</ele><time>2026-04-22T16:03:01Z</time></trkpt><trkpt lat="45.77759087771322" lon="11.468047468972255"><ele>452.99999999999994</ele><time>2026-04-22T16:03:08Z</time></trkpt><trkpt lat="45.777655731081126" lon="11.468009264865183"><ele>452.99999999999994</ele><time>2026-04-22T16:03:33Z</time></trkpt><trkpt lat="45.777738425135745" lon="11.468079818300799"><ele>453.0</ele><time>2026-04-22T16:03:42Z</time></trkpt><trkpt lat="45.77778032610677" lon="11.46815808058799"><ele>452.99999999999994</ele><time>2026-04-22T16:03:49Z</time></trkpt><trkpt lat="45.777822620878986" lon="11.468232026236404"><ele>452.99999999999994</ele><time>2026-04-22T16:03:56Z</time></trkpt><trkpt lat="45.77786928571078" lon="11.468314897873967"><ele>458.42857142857133</ele><time>2026-04-22T16:04:04Z</time></trkpt><trkpt lat="45.77791486072798" lon="11.468392138265934"><ele>463.85714285714283</ele><time>2026-04-22T16:04:10Z</time></trkpt><trkpt lat="45.77795123101661" lon="11.468466608187908"><ele>469.2857142857142</ele><time>2026-04-22T16:04:16Z</time></trkpt><trkpt lat="45.77796869534078" lon="11.468553402444439"><ele>474.71428571428567</ele><time>2026-04-22T16:04:22Z</time></trkpt><trkpt lat="45.777979336624796" lon="11.468658997054444"><ele>480.1428571428571</ele><time>2026-04-22T16:05:03Z</time></trkpt><trkpt lat="45.77797020643111" lon="11.46877721760132"><ele>485.57142857142856</ele><time>2026-04-22T16:05:08Z</time></trkpt><trkpt lat="45.777953674679" lon="11.468864620520995"><ele>491.0</ele><time>2026-04-22T16:05:12Z</time></trkpt><trkpt lat="45.77794781841434" lon="11.468965982589623"><ele>491.4285714285714</ele><time>2026-04-22T16:05:17Z</time></trkpt><trkpt lat="45.7779421714207" lon="11.469070378272205"><ele>491.8571428571428</ele><time>2026-04-22T16:05:22Z</time></trkpt><trkpt lat="45.77793388080855" lon="11.469184329961088"><ele>492.2857142857143</ele><time>2026-04-22T16:05:27Z</time></trkpt><trkpt lat="45.77791571990383" lon="11.469283985914602"><ele>492.71428571428567</ele><time>2026-04-22T16:05:33Z</time></trkpt><trkpt lat="45.777863216167376" lon="11.46935706342534"><ele>493.1428571428571</ele><time>2026-04-22T16:05:42Z</time></trkpt><trkpt lat="45.77779540639799" lon="11.469405638078616"><ele>493.57142857142856</ele><time>2026-04-22T16:05:49Z</time></trkpt><trkpt lat="45.77776795380067" lon="11.469504773508035"><ele>494.0</ele><time>2026-04-22T16:05:54Z</time></trkpt><trkpt lat="45.77775876305902" lon="11.469602774687388"><ele>494.57142857142856</ele><time>2026-04-22T16:05:59Z</time></trkpt><trkpt lat="45.77778721202177" lon="11.469691225600222"><ele>495.1428571428571</ele><time>2026-04-22T16:06:33Z</time></trkpt><trkpt lat="45.777784245315935" lon="11.46978570730029"><ele>495.71428571428567</ele><time>2026-04-22T16:06:41Z</time></trkpt><trkpt lat="45.777815205547135" lon="11.469891013495616"><ele>496.2857142857143</ele><time>2026-04-22T16:07:34Z</time></trkpt><trkpt lat="45.777756827031936" lon="11.469975877477145"><ele>496.8571428571428</ele><time>2026-04-22T16:08:17Z</time></trkpt><trkpt lat="45.777779215748474" lon="11.470074602226715"><ele>497.4285714285714</ele><time>2026-04-22T16:08:23Z</time></trkpt><trkpt lat="45.77778254624978" lon="11.470176940988447"><ele>498.0</ele><time>2026-04-22T16:08:29Z</time></trkpt><trkpt lat="45.77779390013293" lon="11.470266258196618"><ele>498.0</ele><time>2026-04-22T16:08:35Z</time></trkpt><trkpt lat="45.77780250605047" lon="11.470378965257625"><ele>497.99999999999994</ele><time>2026-04-22T16:08:40Z</time></trkpt><trkpt lat="45.77781790040476" lon="11.47048337027943"><ele>498.0</ele><time>2026-04-22T16:08:45Z</time></trkpt><trkpt lat="45.777814440665004" lon="11.470582209913522"><ele>498.0</ele><time>2026-04-22T16:08:51Z</time></trkpt><trkpt lat="45.777798978858705" lon="11.470678984728265"><ele>497.99999999999994</ele><time>2026-04-22T16:08:56.999Z</time></trkpt><trkpt lat="45.7777659215599" lon="11.470756036951522"><ele>498.0</ele><time>2026-04-22T16:09:00.999Z</time></trkpt><trkpt lat="45.77770284296224" lon="11.470791881935382"><ele>498.0</ele><time>2026-04-22T16:09:05.999Z</time></trkpt><trkpt lat="45.777629537951654" lon="11.470823285484531"><ele>494.1428571428571</ele><time>2026-04-22T16:09:12Z</time></trkpt><trkpt lat="45.777589314411266" lon="11.470901037609927"><ele>490.2857142857142</ele><time>2026-04-22T16:09:16Z</time></trkpt><trkpt lat="45.77756826425723" lon="11.47100448367311"><ele>486.42857142857144</ele><time>2026-04-22T16:09:20Z</time></trkpt><trkpt lat="45.77755790014316" lon="11.471109807472624"><ele>482.57142857142856</ele><time>2026-04-22T16:09:25Z</time></trkpt><trkpt lat="45.777547291769366" lon="11.471213486753667"><ele>478.7142857142857</ele><time>2026-04-22T16:09:30Z</time></trkpt><trkpt lat="45.77756903542392" lon="11.471302411538012"><ele>474.8571428571429</ele><time>2026-04-22T16:09:34Z</time></trkpt><trkpt lat="45.777557588182965" lon="11.471401294014635"><ele>471.00000000000006</ele><time>2026-04-22T16:09:39Z</time></trkpt><trkpt lat="45.777564299472445" lon="11.47149678839407"><ele>471.00000000000006</ele><time>2026-04-22T16:09:45Z</time></trkpt><trkpt lat="45.77757107954322" lon="11.471592057144916"><ele>471.0</ele><time>2026-04-22T16:09:50Z</time></trkpt><trkpt lat="45.77756884635641" lon="11.471689268404157"><ele>471.00000000000006</ele><time>2026-04-22T16:09:55Z</time></trkpt><trkpt lat="45.777553390642396" lon="11.471789135767281"><ele>471.00000000000006</ele><time>2026-04-22T16:10:00Z</time></trkpt><trkpt lat="45.777581537436156" lon="11.471888218337783"><ele>471.0</ele><time>2026-04-22T16:10:05Z</time></trkpt><trkpt lat="45.777576230847174" lon="11.471985719454523"><ele>471.00000000000006</ele><time>2026-04-22T16:10:10Z</time></trkpt><trkpt lat="45.777582590645125" lon="11.472086531506706"><ele>471.00000000000006</ele><time>2026-04-22T16:10:15Z</time></trkpt><trkpt lat="45.77757111345905" lon="11.47217796545008"><ele>471.00000000000006</ele><time>2026-04-22T16:10:20Z</time></trkpt><trkpt lat="45.77755003796108" lon="11.472267154066115"><ele>471.0</ele><time>2026-04-22T16:10:25Z</time></trkpt><trkpt lat="45.77747378681102" lon="11.472236095017275"><ele>471.00000000000006</ele><time>2026-04-22T16:10:37Z</time></trkpt><trkpt lat="45.777412826985" lon="11.472211774790953"><ele>471.00000000000006</ele><time>2026-04-22T16:10:42Z</time></trkpt><trkpt lat="45.77734266613538" lon="11.472170095958306"><ele>471.0</ele><time>2026-04-22T16:10:52Z</time></trkpt><trkpt lat="45.77727416735596" lon="11.472115458040726"><ele>471.00000000000006</ele><time>2026-04-22T16:10:55Z</time></trkpt><trkpt lat="45.777205430284084" lon="11.472064903415072"><ele>471.00000000000006</ele><time>2026-04-22T16:11:00Z</time></trkpt><trkpt lat="45.77714142479225" lon="11.472029029847487"><ele>471.00000000000006</ele><time>2026-04-22T16:11:04.999Z</time></trkpt><trkpt lat="45.77708878924404" lon="11.471964361827402"><ele>471.0</ele><time>2026-04-22T16:11:09.999Z</time></trkpt><trkpt lat="45.77702810157231" lon="11.471903348167258"><ele>471.00000000000006</ele><time>2026-04-22T16:11:15Z</time></trkpt><trkpt lat="45.7769673175767" lon="11.471874286211426"><ele>471.00000000000006</ele><time>2026-04-22T16:11:19Z</time></trkpt><trkpt lat="45.77689602093227" lon="11.47187879363404"><ele>471.0</ele><time>2026-04-22T16:11:23Z</time></trkpt><trkpt lat="45.7768644587404" lon="11.471968498220974"><ele>471.00000000000006</ele><time>2026-04-22T16:11:27Z</time></trkpt><trkpt lat="45.77688110691709" lon="11.47205686865825"><ele>471.00000000000006</ele><time>2026-04-22T16:11:31Z</time></trkpt><trkpt lat="45.7769149146333" lon="11.472145769014004"><ele>472.57142857142867</ele><time>2026-04-22T16:11:35Z</time></trkpt><trkpt lat="45.77694766510238" lon="11.472227461331139"><ele>474.14285714285717</ele><time>2026-04-22T16:11:40Z</time></trkpt><trkpt lat="45.776946694097965" lon="11.472322582160634"><ele>475.7142857142858</ele><time>2026-04-22T16:11:46Z</time></trkpt><trkpt lat="45.7769346599986" lon="11.472411892600753"><ele>477.28571428571433</ele><time>2026-04-22T16:11:53Z</time></trkpt><trkpt lat="45.77693549951779" lon="11.472518810910744"><ele>478.8571428571429</ele><time>2026-04-22T16:12:00Z</time></trkpt><trkpt lat="45.776904453712014" lon="11.472599357428635"><ele>480.42857142857144</ele><time>2026-04-22T16:12:08Z</time></trkpt><trkpt lat="45.77690357910843" lon="11.472695411142888"><ele>482.0</ele><time>2026-04-22T16:12:14Z</time></trkpt><trkpt lat="45.77688299905831" lon="11.47278132936957"><ele>482.0</ele><time>2026-04-22T16:12:20Z</time></trkpt><trkpt lat="45.77689418905709" lon="11.47287902043837"><ele>482.00000000000006</ele><time>2026-04-22T16:12:24Z</time></trkpt><trkpt lat="45.776854744403785" lon="11.472962034424137"><ele>482.0</ele><time>2026-04-22T16:12:30Z</time></trkpt><trkpt lat="45.77682003125619" lon="11.473040754788741"><ele>482.0</ele><time>2026-04-22T16:12:35Z</time></trkpt><trkpt lat="45.77679289341683" lon="11.473127932683651"><ele>482.00000000000006</ele><time>2026-04-22T16:12:39Z</time></trkpt><trkpt lat="45.77679802042115" lon="11.473226437153208"><ele>482.0</ele><time>2026-04-22T16:12:44Z</time></trkpt><trkpt lat="45.776811524784286" lon="11.473325701055778"><ele>482.0</ele><time>2026-04-22T16:12:49Z</time></trkpt><trkpt lat="45.77682539881985" lon="11.473419205442154"><ele>483.14285714285717</ele><time>2026-04-22T16:12:54Z</time></trkpt><trkpt lat="45.776840086256456" lon="11.473508956551505"><ele>484.28571428571433</ele><time>2026-04-22T16:12:59Z</time></trkpt><trkpt lat="45.776867619354036" lon="11.473590675484454"><ele>485.42857142857144</ele><time>2026-04-22T16:13:04Z</time></trkpt><trkpt lat="45.7768948746944" lon="11.473672427660222"><ele>486.57142857142856</ele><time>2026-04-22T16:13:08Z</time></trkpt><trkpt lat="45.776892485084396" lon="11.47376601571217"><ele>487.7142857142857</ele><time>2026-04-22T16:13:13Z</time></trkpt><trkpt lat="45.77692241464701" lon="11.47384689118035"><ele>488.8571428571429</ele><time>2026-04-22T16:13:17.999Z</time></trkpt><trkpt lat="45.77695782052954" lon="11.473933422639206"><ele>490.0</ele><time>2026-04-22T16:13:24Z</time></trkpt><trkpt lat="45.776979975439396" lon="11.474024863947871"><ele>490.57142857142856</ele><time>2026-04-22T16:13:30Z</time></trkpt><trkpt lat="45.77699484498231" lon="11.47412872443334"><ele>491.1428571428571</ele><time>2026-04-22T16:13:39Z</time></trkpt><trkpt lat="45.777021560333" lon="11.4742279652898"><ele>491.7142857142857</ele><time>2026-04-22T16:13:45Z</time></trkpt><trkpt lat="45.777060265203986" lon="11.474310856148255"><ele>492.2857142857143</ele><time>2026-04-22T16:13:51Z</time></trkpt><trkpt lat="45.777078158150395" lon="11.474397761150405"><ele>492.85714285714283</ele><time>2026-04-22T16:13:56Z</time></trkpt><trkpt lat="45.7771026602952" lon="11.47448860549845"><ele>493.42857142857144</ele><time>2026-04-22T16:14:02Z</time></trkpt><trkpt lat="45.77711427036983" lon="11.47457971548591"><ele>494.0</ele><time>2026-04-22T16:14:08Z</time></trkpt><trkpt lat="45.77710607997654" lon="11.474682471189663"><ele>495.28571428571433</ele><time>2026-04-22T16:14:15Z</time></trkpt><trkpt lat="45.77708138144958" lon="11.474780918361983"><ele>496.57142857142856</ele><time>2026-04-22T16:14:22Z</time></trkpt><trkpt lat="45.77704681974313" lon="11.474866562823097"><ele>497.8571428571429</ele><time>2026-04-22T16:14:28Z</time></trkpt><trkpt lat="45.77702180507216" lon="11.474968033428308"><ele>499.14285714285717</ele><time>2026-04-22T16:14:32.999Z</time></trkpt><trkpt lat="45.77700038790878" lon="11.475066010858331"><ele>500.42857142857144</ele><time>2026-04-22T16:14:37.999Z</time></trkpt><trkpt lat="45.77699687816073" lon="11.475163503825975"><ele>501.7142857142857</ele><time>2026-04-22T16:14:42.999Z</time></trkpt><trkpt lat="45.77695971994241" lon="11.4752609246113"><ele>503.0</ele><time>2026-04-22T16:14:47.999Z</time></trkpt><trkpt lat="45.776925333306785" lon="11.47533677984505"><ele>503.0</ele><time>2026-04-22T16:14:52.999Z</time></trkpt><trkpt lat="45.776895844866665" lon="11.475426141889017"><ele>503.00000000000006</ele><time>2026-04-22T16:14:58.999Z</time></trkpt><trkpt lat="45.776862663704016" lon="11.475512621283125"><ele>503.0</ele><time>2026-04-22T16:15:04.999Z</time></trkpt><trkpt lat="45.77682557770507" lon="11.475599622742564"><ele>503.0</ele><time>2026-04-22T16:15:09.999Z</time></trkpt><trkpt lat="45.77680616273435" lon="11.475692106803793"><ele>503.00000000000006</ele><time>2026-04-22T16:15:13.999Z</time></trkpt><trkpt lat="45.776774764390716" lon="11.475787605789263"><ele>503.0</ele><time>2026-04-22T16:15:18.999Z</time></trkpt><trkpt lat="45.77672583182268" lon="11.475855179496138"><ele>503.0</ele><time>2026-04-22T16:15:24Z</time></trkpt><trkpt lat="45.77667919750144" lon="11.475944721425542"><ele>500.14285714285717</ele><time>2026-04-22T16:15:30Z</time></trkpt><trkpt lat="45.7766263698972" lon="11.475998889601994"><ele>497.28571428571433</ele><time>2026-04-22T16:15:35Z</time></trkpt><trkpt lat="45.776573780891844" lon="11.476059538691041"><ele>494.42857142857144</ele><time>2026-04-22T16:15:40Z</time></trkpt><trkpt lat="45.776536450934934" lon="11.476145422629198"><ele>491.57142857142856</ele><time>2026-04-22T16:15:46Z</time></trkpt><trkpt lat="45.77651924612664" lon="11.476243636024858"><ele>488.7142857142857</ele><time>2026-04-22T16:15:51Z</time></trkpt><trkpt lat="45.77653437027773" lon="11.476347245065199"><ele>485.8571428571429</ele><time>2026-04-22T16:15:58Z</time></trkpt><trkpt lat="45.776583442690516" lon="11.476424252503604"><ele>483.0</ele><time>2026-04-22T16:16:04Z</time></trkpt><trkpt lat="45.776646298216015" lon="11.476486541560332"><ele>483.0</ele><time>2026-04-22T16:16:11Z</time></trkpt><trkpt lat="45.77669792088452" lon="11.476573320766235"><ele>483.0</ele><time>2026-04-22T16:16:18Z</time></trkpt><trkpt lat="45.77673842146036" lon="11.476647586045598"><ele>483.0</ele><time>2026-04-22T16:16:23Z</time></trkpt><trkpt lat="45.77678888068727" lon="11.47673572268325"><ele>483.0</ele><time>2026-04-22T16:16:30Z</time></trkpt><trkpt lat="45.77682820074709" lon="11.476816966384353"><ele>483.0</ele><time>2026-04-22T16:16:36Z</time></trkpt><trkpt lat="45.77686569309516" lon="11.476895356885574"><ele>483.0</ele><time>2026-04-22T16:16:43Z</time></trkpt><trkpt lat="45.77689711897663" lon="11.476990839018416"><ele>483.0</ele><time>2026-04-22T16:16:53Z</time></trkpt><trkpt lat="45.77692718343189" lon="11.477089883608262"><ele>483.0</ele><time>2026-04-22T16:17:00Z</time></trkpt><trkpt lat="45.776895974511746" lon="11.477168718346903"><ele>483.0</ele><time>2026-04-22T16:17:08Z</time></trkpt><trkpt lat="45.77683915829298" lon="11.477210438738343"><ele>483.0</ele><time>2026-04-22T16:17:17Z</time></trkpt><trkpt lat="45.776776749834795" lon="11.477242511418984"><ele>483.0</ele><time>2026-04-22T16:17:23Z</time></trkpt><trkpt lat="45.77671499695172" lon="11.477271741717592"><ele>483.0</ele><time>2026-04-22T16:17:34Z</time></trkpt><trkpt lat="45.77665850262252" lon="11.47721458172933"><ele>483.0</ele><time>2026-04-22T16:17:44Z</time></trkpt><trkpt lat="45.77660675314422" lon="11.477155746387874"><ele>483.0</ele><time>2026-04-22T16:17:52Z</time></trkpt><trkpt lat="45.77656407177645" lon="11.477080551786209"><ele>483.0</ele><time>2026-04-22T16:18:08Z</time></trkpt><trkpt lat="45.77650079089073" lon="11.477033178553757"><ele>483.0</ele><time>2026-04-22T16:18:14Z</time></trkpt><trkpt lat="45.77644337976612" lon="11.47698291260638"><ele>483.0</ele><time>2026-04-22T16:18:24Z</time></trkpt><trkpt lat="45.77636864296237" lon="11.476995727746798"><ele>483.0</ele><time>2026-04-22T16:18:35Z</time></trkpt><trkpt lat="45.77630347890176" lon="11.476984821405601"><ele>483.0</ele><time>2026-04-22T16:18:38Z</time></trkpt><trkpt lat="45.77623085391153" lon="11.477002355701613"><ele>483.0</ele><time>2026-04-22T16:18:42Z</time></trkpt><trkpt lat="45.77614937132701" lon="11.476990012308374"><ele>483.0</ele><time>2026-04-22T16:18:46Z</time></trkpt><trkpt lat="45.77607619357923" lon="11.476987154063716"><ele>481.1428571428571</ele><time>2026-04-22T16:18:50Z</time></trkpt><trkpt lat="45.776010278813814" lon="11.476966018119994"><ele>479.2857142857143</ele><time>2026-04-22T16:18:59Z</time></trkpt><trkpt lat="45.775972608293316" lon="11.477048378234203"><ele>477.42857142857144</ele><time>2026-04-22T16:19:03Z</time></trkpt><trkpt lat="45.775931177354714" lon="11.47712845174154"><ele>475.57142857142856</ele><time>2026-04-22T16:19:07Z</time></trkpt><trkpt lat="45.77586065662419" lon="11.477134046978874"><ele>473.71428571428567</ele><time>2026-04-22T16:19:14Z</time></trkpt><trkpt lat="45.775789165043584" lon="11.477132501339796"><ele>471.85714285714283</ele><time>2026-04-22T16:19:25Z</time></trkpt><trkpt lat="45.77572334202809" lon="11.477083025594343"><ele>470.0</ele><time>2026-04-22T16:19:43Z</time></trkpt><trkpt lat="45.775734341401716" lon="11.476986425698778"><ele>468.85714285714283</ele><time>2026-04-22T16:19:52Z</time></trkpt><trkpt lat="45.77577383006433" lon="11.476890599782536"><ele>467.71428571428567</ele><time>2026-04-22T16:19:58Z</time></trkpt><trkpt lat="45.775737260053184" lon="11.476790575754533"><ele>466.57142857142856</ele><time>2026-04-22T16:20:08Z</time></trkpt><trkpt lat="45.77569907162621" lon="11.476715367312911"><ele>465.42857142857144</ele><time>2026-04-22T16:20:21Z</time></trkpt><trkpt lat="45.77565828932789" lon="11.476644808694983"><ele>464.2857142857143</ele><time>2026-04-22T16:20:34Z</time></trkpt><trkpt lat="45.77559621851267" lon="11.476661043942643"><ele>463.1428571428571</ele><time>2026-04-22T16:20:38Z</time></trkpt><trkpt lat="45.775524341015" lon="11.47670874359016"><ele>462.0</ele><time>2026-04-22T16:20:46Z</time></trkpt><trkpt lat="45.775467144061444" lon="11.47674798271865"><ele>462.0</ele><time>2026-04-22T16:20:53Z</time></trkpt><trkpt lat="45.77540571683026" lon="11.476716178396295"><ele>462.0</ele><time>2026-04-22T16:21:06Z</time></trkpt><trkpt lat="45.77533782104277" lon="11.47674806071474"><ele>462.0</ele><time>2026-04-22T16:21:14Z</time></trkpt><trkpt lat="45.77528375242317" lon="11.476803961997383"><ele>462.0</ele><time>2026-04-22T16:21:21Z</time></trkpt><trkpt lat="45.77522387040122" lon="11.476845141557371"><ele>462.0</ele><time>2026-04-22T16:21:27Z</time></trkpt><trkpt lat="45.775147691483696" lon="11.476862177398589"><ele>462.0</ele><time>2026-04-22T16:21:32Z</time></trkpt><trkpt lat="45.775084126822655" lon="11.476870118696027"><ele>462.0</ele><time>2026-04-22T16:21:37.999Z</time></trkpt><trkpt lat="45.77501653649516" lon="11.476892623000197"><ele>459.0</ele><time>2026-04-22T16:21:45Z</time></trkpt><trkpt lat="45.774943681735316" lon="11.47689504409881"><ele>456.0</ele><time>2026-04-22T16:21:51Z</time></trkpt><trkpt lat="45.774883467265695" lon="11.47693626841165"><ele>453.0</ele><time>2026-04-22T16:21:57Z</time></trkpt><trkpt lat="45.77482171441427" lon="11.476962967327001"><ele>450.0</ele><time>2026-04-22T16:22:02Z</time></trkpt><trkpt lat="45.774757132192754" lon="11.476968808107786"><ele>447.0</ele><time>2026-04-22T16:22:08Z</time></trkpt><trkpt lat="45.77471447919468" lon="11.477043808219626"><ele>444.0</ele><time>2026-04-22T16:22:15Z</time></trkpt><trkpt lat="45.77465067447029" lon="11.477039241323777"><ele>441.0</ele><time>2026-04-22T16:22:21Z</time></trkpt><trkpt lat="45.774584144246866" lon="11.477062086795264"><ele>441.0</ele><time>2026-04-22T16:22:27Z</time></trkpt><trkpt lat="45.77451873291119" lon="11.477102531190475"><ele>441.0</ele><time>2026-04-22T16:22:34Z</time></trkpt><trkpt lat="45.77445514963493" lon="11.477117979617633"><ele>441.0</ele><time>2026-04-22T16:22:39Z</time></trkpt><trkpt lat="45.77438824900134" lon="11.477102103601116"><ele>441.0</ele><time>2026-04-22T16:22:45Z</time></trkpt><trkpt lat="45.77432316596282" lon="11.477132927824178"><ele>441.0</ele><time>2026-04-22T16:22:53Z</time></trkpt><trkpt lat="45.77431584768306" lon="11.477225178909858"><ele>441.0</ele><time>2026-04-22T16:23:41.999Z</time></trkpt><trkpt lat="45.7742304180625" lon="11.477276801605829"><ele>441.0</ele><time>2026-04-22T16:23:44.999Z</time></trkpt><trkpt lat="45.774135989875404" lon="11.477253499460735"><ele>438.0</ele><time>2026-04-22T16:23:48Z</time></trkpt><trkpt lat="45.77406195084398" lon="11.477246928491036"><ele>435.0</ele><time>2026-04-22T16:23:57Z</time></trkpt><trkpt lat="45.7739903417541" lon="11.477256547997976"><ele>432.0</ele><time>2026-04-22T16:24:03Z</time></trkpt><trkpt lat="45.77390721145704" lon="11.477183738405976"><ele>429.0</ele><time>2026-04-22T16:24:16Z</time></trkpt><trkpt lat="45.77382799968176" lon="11.477130210073254"><ele>426.0</ele><time>2026-04-22T16:24:20Z</time></trkpt><trkpt lat="45.77375601828786" lon="11.477059987297098"><ele>423.0</ele><time>2026-04-22T16:24:23Z</time></trkpt><trkpt lat="45.77368684562872" lon="11.477028769265088"><ele>422.85714285714283</ele><time>2026-04-22T16:24:30Z</time></trkpt><trkpt lat="45.77362442862906" lon="11.47701515415161"><ele>422.7142857142857</ele><time>2026-04-22T16:24:37Z</time></trkpt><trkpt lat="45.773560447145954" lon="11.476986794940178"><ele>422.57142857142856</ele><time>2026-04-22T16:24:43Z</time></trkpt><trkpt lat="45.773489793603375" lon="11.476962910328044"><ele>422.42857142857144</ele><time>2026-04-22T16:24:50Z</time></trkpt><trkpt lat="45.77342118929394" lon="11.476919379784041"><ele>422.28571428571433</ele><time>2026-04-22T16:24:58Z</time></trkpt><trkpt lat="45.773356760853865" lon="11.476872569395878"><ele>422.14285714285717</ele><time>2026-04-22T16:25:05Z</time></trkpt><trkpt lat="45.77333290819415" lon="11.476779364523184"><ele>422.0</ele><time>2026-04-22T16:25:10Z</time></trkpt><trkpt lat="45.77326342743172" lon="11.476772080868765"><ele>419.2857142857143</ele><time>2026-04-22T16:25:16Z</time></trkpt><trkpt lat="45.773200180304286" lon="11.476725937038099"><ele>416.57142857142856</ele><time>2026-04-22T16:25:23Z</time></trkpt><trkpt lat="45.773166720002614" lon="11.476635138433517"><ele>413.8571428571429</ele><time>2026-04-22T16:25:29Z</time></trkpt><trkpt lat="45.773125015632" lon="11.476566977950984"><ele>411.1428571428571</ele><time>2026-04-22T16:25:34Z</time></trkpt><trkpt lat="45.77306861233162" lon="11.476628780268538"><ele>408.4285714285714</ele><time>2026-04-22T16:26:35Z</time></trkpt><trkpt lat="45.77302383089662" lon="11.476704654946007"><ele>405.7142857142857</ele><time>2026-04-22T16:26:41Z</time></trkpt><trkpt lat="45.772999202242225" lon="11.47679176250639"><ele>403.0</ele><time>2026-04-22T16:26:46Z</time></trkpt><trkpt lat="45.772990285034574" lon="11.476906984365131"><ele>403.0</ele><time>2026-04-22T16:26:52Z</time></trkpt><trkpt lat="45.77299579148917" lon="11.477003326741317"><ele>403.0</ele><time>2026-04-22T16:26:57Z</time></trkpt><trkpt lat="45.77297369147189" lon="11.477091892102242"><ele>403.0</ele><time>2026-04-22T16:27:01Z</time></trkpt><trkpt lat="45.772938641047325" lon="11.477167127073201"><ele>403.0</ele><time>2026-04-22T16:27:05Z</time></trkpt><trkpt lat="45.77291275726271" lon="11.477263391351265"><ele>403.0</ele><time>2026-04-22T16:27:10Z</time></trkpt><trkpt lat="45.77286258886229" lon="11.47732294180946"><ele>403.0</ele><time>2026-04-22T16:27:14Z</time></trkpt><trkpt lat="45.772801689594125" lon="11.477359969852635"><ele>403.0</ele><time>2026-04-22T16:27:20Z</time></trkpt><trkpt lat="45.772737636387085" lon="11.477401880127356"><ele>399.42857142857144</ele><time>2026-04-22T16:27:25Z</time></trkpt><trkpt lat="45.7726796672686" lon="11.477456961337447"><ele>395.85714285714283</ele><time>2026-04-22T16:27:31Z</time></trkpt><trkpt lat="45.77261089254815" lon="11.477452877086169"><ele>392.2857142857143</ele><time>2026-04-22T16:27:45Z</time></trkpt><trkpt lat="45.7725414553603" lon="11.47741910310564"><ele>388.7142857142857</ele><time>2026-04-22T16:27:50Z</time></trkpt><trkpt lat="45.77247562292574" lon="11.477412096864528"><ele>385.1428571428571</ele><time>2026-04-22T16:27:55Z</time></trkpt><trkpt lat="45.77240751042376" lon="11.477419398474957"><ele>381.57142857142856</ele><time>2026-04-22T16:28:00.001Z</time></trkpt><trkpt lat="45.77233760690946" lon="11.477405396639474"><ele>378.0</ele><time>2026-04-22T16:28:05.001Z</time></trkpt><trkpt lat="45.77227214519467" lon="11.477421404486229"><ele>378.0</ele><time>2026-04-22T16:28:10.001Z</time></trkpt><trkpt lat="45.77220701060863" lon="11.477394690631211"><ele>378.0</ele><time>2026-04-22T16:28:15Z</time></trkpt><trkpt lat="45.772143305693334" lon="11.477372217855399"><ele>378.0</ele><time>2026-04-22T16:28:21Z</time></trkpt><trkpt lat="45.77207894737499" lon="11.477389189526297"><ele>378.0</ele><time>2026-04-22T16:28:26Z</time></trkpt><trkpt lat="45.77201016395941" lon="11.477412305882018"><ele>378.0</ele><time>2026-04-22T16:28:32Z</time></trkpt><trkpt lat="45.77193853704272" lon="11.477453060246429"><ele>378.0</ele><time>2026-04-22T16:28:38Z</time></trkpt><trkpt lat="45.77188110777738" lon="11.477490699208127"><ele>378.0</ele><time>2026-04-22T16:29:00Z</time></trkpt><trkpt lat="45.771823523799775" lon="11.477557393517847"><ele>375.14285714285717</ele><time>2026-04-22T16:29:07Z</time></trkpt><trkpt lat="45.7717582451942" lon="11.477556464687249"><ele>372.2857142857143</ele><time>2026-04-22T16:29:13Z</time></trkpt><trkpt lat="45.771692599858284" lon="11.477553211031958"><ele>369.42857142857144</ele><time>2026-04-22T16:29:19Z</time></trkpt><trkpt lat="45.77161775239977" lon="11.477535318118589"><ele>366.57142857142856</ele><time>2026-04-22T16:29:25Z</time></trkpt><trkpt lat="45.771551730924735" lon="11.477504671879617"><ele>363.7142857142857</ele><time>2026-04-22T16:29:30Z</time></trkpt><trkpt lat="45.77148854011738" lon="11.47745116842429"><ele>360.8571428571429</ele><time>2026-04-22T16:29:36Z</time></trkpt><trkpt lat="45.77142464213508" lon="11.47741802048825"><ele>358.0</ele><time>2026-04-22T16:29:41Z</time></trkpt><trkpt lat="45.77135973396872" lon="11.477427795242525"><ele>358.0</ele><time>2026-04-22T16:29:55Z</time></trkpt><trkpt lat="45.77142181230623" lon="11.477461679806503"><ele>358.0</ele><time>2026-04-22T16:30:03Z</time></trkpt><trkpt lat="45.77135886227265" lon="11.477471229638446"><ele>358.0</ele><time>2026-04-22T16:30:11.001Z</time></trkpt><trkpt lat="45.771299129810586" lon="11.477531995253791"><ele>358.0</ele><time>2026-04-22T16:30:17Z</time></trkpt><trkpt lat="45.77128773711549" lon="11.477677338194852"><ele>358.0</ele><time>2026-04-22T16:30:21Z</time></trkpt><trkpt lat="45.77124731591561" lon="11.47777676648133"><ele>358.0</ele><time>2026-04-22T16:30:25Z</time></trkpt><trkpt lat="45.77120739525237" lon="11.477857714073945"><ele>359.00000000000006</ele><time>2026-04-22T16:30:30Z</time></trkpt><trkpt lat="45.77119916632015" lon="11.477953634042022"><ele>360.0</ele><time>2026-04-22T16:30:35Z</time></trkpt><trkpt lat="45.77117501438434" lon="11.47803809169582"><ele>361.0</ele><time>2026-04-22T16:30:40Z</time></trkpt><trkpt lat="45.771160540455924" lon="11.478138268176135"><ele>362.0</ele><time>2026-04-22T16:30:45Z</time></trkpt><trkpt lat="45.77114178681628" lon="11.47822579712738"><ele>363.0</ele><time>2026-04-22T16:30:50Z</time></trkpt><trkpt lat="45.77111775540095" lon="11.478319001586412"><ele>364.00000000000006</ele><time>2026-04-22T16:30:55Z</time></trkpt><trkpt lat="45.77107151862662" lon="11.478402657776918"><ele>365.0</ele><time>2026-04-22T16:31:00Z</time></trkpt><trkpt lat="45.77104627106428" lon="11.478498659379973"><ele>366.42857142857144</ele><time>2026-04-22T16:31:05Z</time></trkpt><trkpt lat="45.77098938805673" lon="11.478558662662527"><ele>367.8571428571429</ele><time>2026-04-22T16:31:10Z</time></trkpt><trkpt lat="45.77096919088464" lon="11.478654036465047"><ele>369.28571428571433</ele><time>2026-04-22T16:31:15Z</time></trkpt><trkpt lat="45.77092899258373" lon="11.478727666013233"><ele>370.7142857142857</ele><time>2026-04-22T16:31:20Z</time></trkpt><trkpt lat="45.770917761945306" lon="11.478821460423548"><ele>372.1428571428571</ele><time>2026-04-22T16:31:25Z</time></trkpt><trkpt lat="45.7709904529885" lon="11.478856991936674"><ele>373.5714285714286</ele><time>2026-04-22T16:31:30Z</time></trkpt><trkpt lat="45.771048161980055" lon="11.478816584258325"><ele>375.0</ele><time>2026-04-22T16:31:33Z</time></trkpt><trkpt lat="45.77103730873584" lon="11.478920736562657"><ele>371.7142857142857</ele><time>2026-04-22T16:31:37Z</time></trkpt><trkpt lat="45.77101414231895" lon="11.479027923131026"><ele>368.4285714285714</ele><time>2026-04-22T16:31:42Z</time></trkpt><trkpt lat="45.770995109424476" lon="11.479133583117795"><ele>365.1428571428571</ele><time>2026-04-22T16:31:47Z</time></trkpt><trkpt lat="45.770968517842746" lon="11.479227408692147"><ele>361.8571428571429</ele><time>2026-04-22T16:31:52Z</time></trkpt><trkpt lat="45.77092346486383" lon="11.479301910559471"><ele>358.57142857142856</ele><time>2026-04-22T16:31:57Z</time></trkpt><trkpt lat="45.7709162836617" lon="11.479392251175813"><ele>355.2857142857143</ele><time>2026-04-22T16:32:02Z</time></trkpt><trkpt lat="45.77087562953636" lon="11.479479260653664"><ele>352.0</ele><time>2026-04-22T16:32:08Z</time></trkpt><trkpt lat="45.770815744620435" lon="11.479519492417062"><ele>352.0</ele><time>2026-04-22T16:32:13Z</time></trkpt><trkpt lat="45.77075905458321" lon="11.479560811761884"><ele>352.0</ele><time>2026-04-22T16:32:18Z</time></trkpt><trkpt lat="45.77071398224069" lon="11.47962765654506"><ele>352.0</ele><time>2026-04-22T16:32:23Z</time></trkpt><trkpt lat="45.77067722709589" lon="11.479705395521963"><ele>352.0</ele><time>2026-04-22T16:32:29Z</time></trkpt><trkpt lat="45.7706008803505" lon="11.479709975804678"><ele>352.0</ele><time>2026-04-22T16:32:34Z</time></trkpt><trkpt lat="45.7705295503946" lon="11.479714022719701"><ele>352.0</ele><time>2026-04-22T16:32:40Z</time></trkpt><trkpt lat="45.77046493028506" lon="11.479711480571815"><ele>352.0</ele><time>2026-04-22T16:32:46Z</time></trkpt><trkpt lat="45.770394278359575" lon="11.479677395978786"><ele>352.0</ele><time>2026-04-22T16:32:52Z</time></trkpt><trkpt lat="45.77032763847591" lon="11.479635989704706"><ele>352.0</ele><time>2026-04-22T16:32:58Z</time></trkpt><trkpt lat="45.770272110673986" lon="11.47958671943002"><ele>352.0</ele><time>2026-04-22T16:33:03Z</time></trkpt><trkpt lat="45.77024494490708" lon="11.479491593222235"><ele>352.0</ele><time>2026-04-22T16:33:08Z</time></trkpt><trkpt lat="45.77023668320683" lon="11.47940005999773"><ele>352.0</ele><time>2026-04-22T16:33:13Z</time></trkpt><trkpt lat="45.77019265951771" lon="11.479317533156973"><ele>352.0</ele><time>2026-04-22T16:33:19Z</time></trkpt><trkpt lat="45.77013423872437" lon="11.479365803662763"><ele>352.0</ele><time>2026-04-22T16:33:24Z</time></trkpt><trkpt lat="45.77007987810827" lon="11.479436223897482"><ele>348.8571428571429</ele><time>2026-04-22T16:33:30Z</time></trkpt><trkpt lat="45.77000870633095" lon="11.47942356251756"><ele>345.7142857142857</ele><time>2026-04-22T16:33:36Z</time></trkpt><trkpt lat="45.76994247135314" lon="11.479389112829542"><ele>342.57142857142856</ele><time>2026-04-22T16:33:41Z</time></trkpt><trkpt lat="45.76987729671461" lon="11.47934592378034"><ele>339.42857142857144</ele><time>2026-04-22T16:33:46Z</time></trkpt><trkpt lat="45.769813145392035" lon="11.479346217619621"><ele>336.2857142857143</ele><time>2026-04-22T16:33:50Z</time></trkpt><trkpt lat="45.76975064259133" lon="11.479402255231893"><ele>333.14285714285717</ele><time>2026-04-22T16:33:55Z</time></trkpt><trkpt lat="45.769731707950385" lon="11.479498542727628"><ele>330.0</ele><time>2026-04-22T16:33:59Z</time></trkpt><trkpt lat="45.76971547780672" lon="11.479592908666294"><ele>330.7142857142857</ele><time>2026-04-22T16:34:04Z</time></trkpt><trkpt lat="45.76969913497979" lon="11.479691904054922"><ele>331.42857142857144</ele><time>2026-04-22T16:34:08.999Z</time></trkpt><trkpt lat="45.7696478981602" lon="11.479766327636211"><ele>332.1428571428571</ele><time>2026-04-22T16:34:26Z</time></trkpt><trkpt lat="45.76957687200689" lon="11.479790705658322"><ele>332.8571428571429</ele><time>2026-04-22T16:34:29Z</time></trkpt><trkpt lat="45.769508656116" lon="11.47980787686545"><ele>333.57142857142856</ele><time>2026-04-22T16:34:34Z</time></trkpt><trkpt lat="45.76943853790575" lon="11.479818657143207"><ele>334.2857142857143</ele><time>2026-04-22T16:34:39Z</time></trkpt><trkpt lat="45.76936995749811" lon="11.47982651329341"><ele>335.0</ele><time>2026-04-22T16:34:44Z</time></trkpt><trkpt lat="45.76930373946338" lon="11.479794687762556"><ele>332.2857142857143</ele><time>2026-04-22T16:34:49Z</time></trkpt><trkpt lat="45.769239203542696" lon="11.479776451032992"><ele>329.57142857142856</ele><time>2026-04-22T16:34:53Z</time></trkpt><trkpt lat="45.769180461744845" lon="11.479812878456135"><ele>326.8571428571429</ele><time>2026-04-22T16:34:58Z</time></trkpt><trkpt lat="45.76911684668036" lon="11.479857099798556"><ele>324.1428571428571</ele><time>2026-04-22T16:35:03Z</time></trkpt><trkpt lat="45.769046540793425" lon="11.479869939900409"><ele>321.42857142857144</ele><time>2026-04-22T16:35:08Z</time></trkpt><trkpt lat="45.76897598072688" lon="11.479881111431064"><ele>318.7142857142857</ele><time>2026-04-22T16:35:13Z</time></trkpt><trkpt lat="45.768917522286515" lon="11.479928635993101"><ele>316.0</ele><time>2026-04-22T16:35:18Z</time></trkpt><trkpt lat="45.76885644769382" lon="11.479974232546759"><ele>316.00000000000006</ele><time>2026-04-22T16:35:25Z</time></trkpt><trkpt lat="45.768802887898275" lon="11.480031594661366"><ele>316.0</ele><time>2026-04-22T16:35:30Z</time></trkpt><trkpt lat="45.76876067340985" lon="11.48010956021739"><ele>316.0</ele><time>2026-04-22T16:35:36Z</time></trkpt><trkpt lat="45.768708493408425" lon="11.480177347810764"><ele>316.0</ele><time>2026-04-22T16:35:42Z</time></trkpt><trkpt lat="45.76865528525856" lon="11.480250140598157"><ele>316.0</ele><time>2026-04-22T16:35:48Z</time></trkpt><trkpt lat="45.76857948458029" lon="11.480275927818582"><ele>316.00000000000006</ele><time>2026-04-22T16:35:54Z</time></trkpt><trkpt lat="45.768527327507286" lon="11.480347776101931"><ele>316.0</ele><time>2026-04-22T16:36:00Z</time></trkpt><trkpt lat="45.76848353162964" lon="11.480423747200645"><ele>313.42857142857144</ele><time>2026-04-22T16:36:06Z</time></trkpt><trkpt lat="45.76843544139689" lon="11.480483162632009"><ele>310.8571428571429</ele><time>2026-04-22T16:36:13.999Z</time></trkpt><trkpt lat="45.768360354432474" lon="11.480480528798875"><ele>308.2857142857143</ele><time>2026-04-22T16:36:19.999Z</time></trkpt><trkpt lat="45.76831038090531" lon="11.480399618203702"><ele>305.7142857142857</ele><time>2026-04-22T16:36:25Z</time></trkpt><trkpt lat="45.76824981064587" lon="11.48035779104558"><ele>303.1428571428571</ele><time>2026-04-22T16:36:30Z</time></trkpt><trkpt lat="45.768188397552976" lon="11.48038339800848"><ele>300.57142857142856</ele><time>2026-04-22T16:36:36Z</time></trkpt><trkpt lat="45.76811356653587" lon="11.480363667076977"><ele>298.0</ele><time>2026-04-22T16:36:43Z</time></trkpt><trkpt lat="45.76805174983238" lon="11.480395750979255"><ele>298.0</ele><time>2026-04-22T16:36:49Z</time></trkpt><trkpt lat="45.76797913081025" lon="11.480419798352417"><ele>298.0</ele><time>2026-04-22T16:36:55Z</time></trkpt><trkpt lat="45.76791679040902" lon="11.480458193524827"><ele>298.0</ele><time>2026-04-22T16:37:00Z</time></trkpt><trkpt lat="45.767851872934884" lon="11.480509518339739"><ele>298.0</ele><time>2026-04-22T16:37:06Z</time></trkpt><trkpt lat="45.76778937579682" lon="11.480552524616696"><ele>298.0</ele><time>2026-04-22T16:37:11Z</time></trkpt><trkpt lat="45.76772704046613" lon="11.480536667330565"><ele>298.0</ele><time>2026-04-22T16:37:18Z</time></trkpt><trkpt lat="45.767666032110796" lon="11.480560478526835"><ele>298.0</ele><time>2026-04-22T16:37:23Z</time></trkpt><trkpt lat="45.76760497228676" lon="11.480538074679435"><ele>295.57142857142856</ele><time>2026-04-22T16:37:28Z</time></trkpt><trkpt lat="45.767539388184545" lon="11.4805225303338"><ele>293.1428571428571</ele><time>2026-04-22T16:37:34Z</time></trkpt><trkpt lat="45.76746919552852" lon="11.48050050774793"><ele>290.7142857142857</ele><time>2026-04-22T16:37:40Z</time></trkpt><trkpt lat="45.76745447210457" lon="11.480410418674484"><ele>288.2857142857143</ele><time>2026-04-22T16:37:45Z</time></trkpt><trkpt lat="45.767459005382584" lon="11.480316206107734"><ele>285.8571428571429</ele><time>2026-04-22T16:37:51Z</time></trkpt><trkpt lat="45.76745988190004" lon="11.480217506501834"><ele>283.42857142857144</ele><time>2026-04-22T16:38:07Z</time></trkpt><trkpt lat="45.767460019496525" lon="11.480115583143128"><ele>281.0</ele><time>2026-04-22T16:38:13Z</time></trkpt><trkpt lat="45.76745688417107" lon="11.48001834098766"><ele>281.00000000000006</ele><time>2026-04-22T16:38:17Z</time></trkpt><trkpt lat="45.76743729581555" lon="11.479918197287784"><ele>281.0</ele><time>2026-04-22T16:38:23Z</time></trkpt><trkpt lat="45.767454273853545" lon="11.479817704320807"><ele>281.0</ele><time>2026-04-22T16:38:28Z</time></trkpt><trkpt lat="45.76745997438322" lon="11.47972286736098"><ele>281.0</ele><time>2026-04-22T16:38:33Z</time></trkpt><trkpt lat="45.767452618052744" lon="11.479620469661263"><ele>281.0</ele><time>2026-04-22T16:38:39Z</time></trkpt><trkpt lat="45.767438754772016" lon="11.479529545337881"><ele>281.00000000000006</ele><time>2026-04-22T16:38:45Z</time></trkpt><trkpt lat="45.76740722847434" lon="11.479442696086782"><ele>281.0</ele><time>2026-04-22T16:38:56Z</time></trkpt><trkpt lat="45.767376146025335" lon="11.479341178649296"><ele>280.8571428571429</ele><time>2026-04-22T16:39:02Z</time></trkpt><trkpt lat="45.76735974997756" lon="11.479240381514705"><ele>280.7142857142857</ele><time>2026-04-22T16:39:07Z</time></trkpt><trkpt lat="45.767346952436874" lon="11.479142388895559"><ele>280.57142857142856</ele><time>2026-04-22T16:39:12Z</time></trkpt><trkpt lat="45.76735368215831" lon="11.479042270567815"><ele>280.42857142857144</ele><time>2026-04-22T16:39:17Z</time></trkpt><trkpt lat="45.76736553787473" lon="11.478937668415709"><ele>280.2857142857143</ele><time>2026-04-22T16:39:22Z</time></trkpt><trkpt lat="45.76737568026894" lon="11.47884857793485"><ele>280.14285714285717</ele><time>2026-04-22T16:39:27Z</time></trkpt><trkpt lat="45.76739707320733" lon="11.478760024368782"><ele>280.0</ele><time>2026-04-22T16:39:32Z</time></trkpt><trkpt lat="45.76740184539549" lon="11.478657658732063"><ele>279.85714285714283</ele><time>2026-04-22T16:39:37Z</time></trkpt><trkpt lat="45.76740450357936" lon="11.478549735291097"><ele>279.7142857142857</ele><time>2026-04-22T16:39:43Z</time></trkpt><trkpt lat="45.76740408030459" lon="11.478449392745622"><ele>279.57142857142856</ele><time>2026-04-22T16:39:48Z</time></trkpt><trkpt lat="45.767399359529755" lon="11.478349309759293"><ele>279.42857142857144</ele><time>2026-04-22T16:39:53Z</time></trkpt><trkpt lat="45.76740573824243" lon="11.478239626535743"><ele>279.2857142857143</ele><time>2026-04-22T16:39:58Z</time></trkpt><trkpt lat="45.76740063715186" lon="11.478140295383612"><ele>279.1428571428571</ele><time>2026-04-22T16:40:04Z</time></trkpt><trkpt lat="45.76739684838444" lon="11.478034987343127"><ele>279.0</ele><time>2026-04-22T16:40:10Z</time></trkpt><trkpt lat="45.767400456330236" lon="11.477932441075094"><ele>278.71428571428567</ele><time>2026-04-22T16:40:15Z</time></trkpt><trkpt lat="45.76740302413469" lon="11.47782847705314"><ele>278.42857142857144</ele><time>2026-04-22T16:40:20Z</time></trkpt><trkpt lat="45.767406137138074" lon="11.47773606308143"><ele>278.1428571428571</ele><time>2026-04-22T16:40:25Z</time></trkpt><trkpt lat="45.76739644016437" lon="11.477643850476582"><ele>277.85714285714283</ele><time>2026-04-22T16:40:30Z</time></trkpt><trkpt lat="45.76738781171712" lon="11.477543891024307"><ele>277.57142857142856</ele><time>2026-04-22T16:40:35.001Z</time></trkpt><trkpt lat="45.76738578064928" lon="11.477447463330629"><ele>277.2857142857143</ele><time>2026-04-22T16:40:40.001Z</time></trkpt><trkpt lat="45.76737472599058" lon="11.477344857513835"><ele>277.0</ele><time>2026-04-22T16:40:45.001Z</time></trkpt><trkpt lat="45.767356372170994" lon="11.477257506320464"><ele>277.0</ele><time>2026-04-22T16:40:50.001Z</time></trkpt><trkpt lat="45.76735767612206" lon="11.477165701364344"><ele>277.0</ele><time>2026-04-22T16:40:54Z</time></trkpt><trkpt lat="45.76735507123665" lon="11.477058004438"><ele>277.0</ele><time>2026-04-22T16:41:00Z</time></trkpt><trkpt lat="45.76734280942896" lon="11.4769689183902"><ele>277.0</ele><time>2026-04-22T16:41:05Z</time></trkpt><trkpt lat="45.76732409290784" lon="11.47688047214041"><ele>277.0</ele><time>2026-04-22T16:41:10Z</time></trkpt><trkpt lat="45.76732093924778" lon="11.476777214967813"><ele>277.0</ele><time>2026-04-22T16:41:15Z</time></trkpt><trkpt lat="45.76731899955872" lon="11.476678825389978"><ele>277.0</ele><time>2026-04-22T16:41:20Z</time></trkpt><trkpt lat="45.76726442318742" lon="11.47662991463009"><ele>276.85714285714283</ele><time>2026-04-22T16:41:24Z</time></trkpt><trkpt lat="45.767194994987605" lon="11.476608544807899"><ele>276.71428571428567</ele><time>2026-04-22T16:41:30Z</time></trkpt><trkpt lat="45.76712407903001" lon="11.476588835955654"><ele>276.57142857142856</ele><time>2026-04-22T16:41:34Z</time></trkpt><trkpt lat="45.76704778746677" lon="11.476612702682788"><ele>276.42857142857144</ele><time>2026-04-22T16:41:38Z</time></trkpt><trkpt lat="45.76698542009167" lon="11.47662801415763"><ele>276.28571428571433</ele><time>2026-04-22T16:41:42Z</time></trkpt><trkpt lat="45.76691140404552" lon="11.4766169713222"><ele>276.14285714285717</ele><time>2026-04-22T16:41:49Z</time></trkpt><trkpt lat="45.766840778190364" lon="11.476580205745716"><ele>276.0</ele><time>2026-04-22T16:41:54Z</time></trkpt><trkpt lat="45.76678611724813" lon="11.47653207449369"><ele>273.42857142857144</ele><time>2026-04-22T16:41:59Z</time></trkpt><trkpt lat="45.76673374887131" lon="11.476459331087336"><ele>270.8571428571429</ele><time>2026-04-22T16:42:04Z</time></trkpt><trkpt lat="45.76668808545979" lon="11.476381136192634"><ele>268.2857142857143</ele><time>2026-04-22T16:42:10Z</time></trkpt><trkpt lat="45.766643217110115" lon="11.476306826786999"><ele>265.7142857142857</ele><time>2026-04-22T16:42:16Z</time></trkpt><trkpt lat="45.76660287034603" lon="11.476233437267481"><ele>263.1428571428571</ele><time>2026-04-22T16:42:20Z</time></trkpt><trkpt lat="45.76656531938956" lon="11.47615163395581"><ele>260.57142857142856</ele><time>2026-04-22T16:42:24Z</time></trkpt><trkpt lat="45.76653043683138" lon="11.47605507206997"><ele>258.0</ele><time>2026-04-22T16:42:29Z</time></trkpt><trkpt lat="45.76648544549613" lon="11.47598683411801"><ele>257.99999999999994</ele><time>2026-04-22T16:42:34Z</time></trkpt><trkpt lat="45.76645333970167" lon="11.475907436655238"><ele>258.0</ele><time>2026-04-22T16:42:39Z</time></trkpt><trkpt lat="45.76642050461231" lon="11.475807174326054"><ele>258.0</ele><time>2026-04-22T16:42:44.001Z</time></trkpt><trkpt lat="45.76638047886118" lon="11.475728973905802"><ele>258.0</ele><time>2026-04-22T16:42:49.001Z</time></trkpt><trkpt lat="45.7663549773678" lon="11.475645902212735"><ele>258.0</ele><time>2026-04-22T16:42:54.001Z</time></trkpt><trkpt lat="45.76630685716981" lon="11.475575031989028"><ele>257.99999999999994</ele><time>2026-04-22T16:43:02.001Z</time></trkpt><trkpt lat="45.76624256014076" lon="11.475555158847113"><ele>258.0</ele><time>2026-04-22T16:43:07Z</time></trkpt><trkpt lat="45.76615464038303" lon="11.475563924790514"><ele>257.99999999999994</ele><time>2026-04-22T16:43:13Z</time></trkpt><trkpt lat="45.766090411787665" lon="11.475552712443386"><ele>258.0</ele><time>2026-04-22T16:43:17Z</time></trkpt><trkpt lat="45.766024875048636" lon="11.475496415720382"><ele>258.0</ele><time>2026-04-22T16:43:23Z</time></trkpt><trkpt lat="45.76598431475143" lon="11.475417770663372"><ele>258.0</ele><time>2026-04-22T16:43:28Z</time></trkpt><trkpt lat="45.7659635981266" lon="11.475313107422744"><ele>258.0</ele><time>2026-04-22T16:43:34Z</time></trkpt><trkpt lat="45.7659780343452" lon="11.475198570172847"><ele>257.99999999999994</ele><time>2026-04-22T16:43:44Z</time></trkpt><trkpt lat="45.76597683292377" lon="11.47510532829318"><ele>258.0</ele><time>2026-04-22T16:43:50Z</time></trkpt><trkpt lat="45.76600631953368" lon="11.4750075540631"><ele>257.99999999999994</ele><time>2026-04-22T16:43:55Z</time></trkpt><trkpt lat="45.766039287740966" lon="11.474921018094241"><ele>258.0</ele><time>2026-04-22T16:44:00Z</time></trkpt><trkpt lat="45.76605577324475" lon="11.474833127635838"><ele>258.0</ele><time>2026-04-22T16:44:05Z</time></trkpt><trkpt lat="45.7659827557573" lon="11.47484653235609"><ele>258.0</ele><time>2026-04-22T16:44:10Z</time></trkpt><trkpt lat="45.76591743681282" lon="11.47489337136787"><ele>258.0</ele><time>2026-04-22T16:44:17Z</time></trkpt><trkpt lat="45.7658471347827" lon="11.474871047069227"><ele>257.99999999999994</ele><time>2026-04-22T16:45:24Z</time></trkpt><trkpt lat="45.76578552149032" lon="11.474898290284218"><ele>258.0</ele><time>2026-04-22T16:45:30Z</time></trkpt><trkpt lat="45.76571269958975" lon="11.474922785624809"><ele>255.57142857142856</ele><time>2026-04-22T16:45:36Z</time></trkpt><trkpt lat="45.765646785991144" lon="11.474931922332475"><ele>253.14285714285714</ele><time>2026-04-22T16:45:42Z</time></trkpt><trkpt lat="45.76558213461008" lon="11.474940622859679"><ele>250.71428571428572</ele><time>2026-04-22T16:45:47Z</time></trkpt><trkpt lat="45.76551362449219" lon="11.474957444718026"><ele>248.28571428571428</ele><time>2026-04-22T16:45:52Z</time></trkpt><trkpt lat="45.76543914120487" lon="11.474953180337906"><ele>245.8571428571429</ele><time>2026-04-22T16:45:58Z</time></trkpt><trkpt lat="45.76537295794758" lon="11.474944047951137"><ele>243.42857142857144</ele><time>2026-04-22T16:46:03Z</time></trkpt><trkpt lat="45.76530737182731" lon="11.474931767850409"><ele>241.0</ele><time>2026-04-22T16:46:48Z</time></trkpt><trkpt lat="45.76523685612359" lon="11.474891888769001"><ele>239.57142857142858</ele><time>2026-04-22T16:46:54Z</time></trkpt><trkpt lat="45.76517046244654" lon="11.47485183452964"><ele>238.14285714285717</ele><time>2026-04-22T16:46:59Z</time></trkpt><trkpt lat="45.76511017325388" lon="11.474805475483663"><ele>236.71428571428572</ele><time>2026-04-22T16:47:04Z</time></trkpt><trkpt lat="45.76505143951285" lon="11.474753939281813"><ele>235.28571428571428</ele><time>2026-04-22T16:47:09Z</time></trkpt><trkpt lat="45.764992075072655" lon="11.474700383974133"><ele>233.85714285714286</ele><time>2026-04-22T16:47:14Z</time></trkpt><trkpt lat="45.764956252715756" lon="11.474604571274313"><ele>232.42857142857144</ele><time>2026-04-22T16:47:20Z</time></trkpt><trkpt lat="45.76492379254014" lon="11.47451233675028"><ele>231.0</ele><time>2026-04-22T16:47:26Z</time></trkpt><trkpt lat="45.76488995736698" lon="11.474401462271407"><ele>229.85714285714286</ele><time>2026-04-22T16:47:33Z</time></trkpt><trkpt lat="45.7648303465828" lon="11.474366145339351"><ele>228.71428571428572</ele><time>2026-04-22T16:47:37Z</time></trkpt><trkpt lat="45.764767148112846" lon="11.474315274161734"><ele>227.57142857142856</ele><time>2026-04-22T16:47:42Z</time></trkpt><trkpt lat="45.76470610762925" lon="11.474281426384243"><ele>226.42857142857144</ele><time>2026-04-22T16:47:47Z</time></trkpt><trkpt lat="45.76464195784926" lon="11.474281170337415"><ele>225.28571428571428</ele><time>2026-04-22T16:47:52Z</time></trkpt><trkpt lat="45.76457789674774" lon="11.474292553468857"><ele>224.14285714285714</ele><time>2026-04-22T16:47:56Z</time></trkpt><trkpt lat="45.764522003253326" lon="11.474371871681393"><ele>223.0</ele><time>2026-04-22T16:48:02Z</time></trkpt><trkpt lat="45.764487768539695" lon="11.474470388546656"><ele>223.0</ele><time>2026-04-22T16:48:07Z</time></trkpt><trkpt lat="45.76445276265379" lon="11.474551683596978"><ele>223.0</ele><time>2026-04-22T16:48:11Z</time></trkpt><trkpt lat="45.76440581021223" lon="11.474643103239973"><ele>223.0</ele><time>2026-04-22T16:48:36Z</time></trkpt><trkpt lat="45.764383867867174" lon="11.474728580131877"><ele>223.0</ele><time>2026-04-22T16:48:38Z</time></trkpt><trkpt lat="45.7643387460642" lon="11.47483108417941"><ele>223.0</ele><time>2026-04-22T16:48:41Z</time></trkpt><trkpt lat="45.76431143589427" lon="11.474917551136294"><ele>223.0</ele><time>2026-04-22T16:48:44Z</time></trkpt><trkpt lat="45.7642903698301" lon="11.474819091760004"><ele>223.0</ele><time>2026-04-22T16:48:47Z</time></trkpt><trkpt lat="45.76432940297087" lon="11.47473686583994"><ele>223.0</ele><time>2026-04-22T16:48:49Z</time></trkpt><trkpt lat="45.76431954605546" lon="11.474635396706486"><ele>223.0</ele><time>2026-04-22T16:48:52Z</time></trkpt><trkpt lat="45.764390982101474" lon="11.474549793581064"><ele>223.0</ele><time>2026-04-22T16:48:58Z</time></trkpt><trkpt lat="45.76437677784607" lon="11.474453306770021"><ele>223.0</ele><time>2026-04-22T16:49:04Z</time></trkpt><trkpt lat="45.76437393686762" lon="11.474358528405409"><ele>223.0</ele><time>2026-04-22T16:49:09Z</time></trkpt><trkpt lat="45.76438563549217" lon="11.474264217801828"><ele>223.0</ele><time>2026-04-22T16:49:13Z</time></trkpt><trkpt lat="45.764445211000655" lon="11.4741955755351"><ele>223.0</ele><time>2026-04-22T16:49:18Z</time></trkpt><trkpt lat="45.76450338626042" lon="11.474127541587777"><ele>223.0</ele><time>2026-04-22T16:49:24Z</time></trkpt><trkpt lat="45.7645589015198" lon="11.474061427279363"><ele>223.0</ele><time>2026-04-22T16:49:29Z</time></trkpt><trkpt lat="45.76463277907093" lon="11.474031433246308"><ele>223.0</ele><time>2026-04-22T16:49:35Z</time></trkpt><trkpt lat="45.76470627797748" lon="11.474044929991551"><ele>223.0</ele><time>2026-04-22T16:49:40Z</time></trkpt><trkpt lat="45.76478272311863" lon="11.474059622218528"><ele>223.0</ele><time>2026-04-22T16:49:45Z</time></trkpt><trkpt lat="45.76485764049866" lon="11.474056083306225"><ele>223.0</ele><time>2026-04-22T16:49:50Z</time></trkpt><trkpt lat="45.764922339856476" lon="11.4740508980232"><ele>223.0</ele><time>2026-04-22T16:49:56Z</time></trkpt><trkpt lat="45.76497363692609" lon="11.474113480389462"><ele>223.0</ele><time>2026-04-22T16:50:00Z</time></trkpt><trkpt lat="45.76503503839004" lon="11.474153379147557"><ele>223.0</ele><time>2026-04-22T16:50:05Z</time></trkpt><trkpt lat="45.76504456154358" lon="11.474244975123208"><ele>223.0</ele><time>2026-04-22T16:50:12Z</time></trkpt><trkpt lat="45.76505946635858" lon="11.474343961569412"><ele>223.0</ele><time>2026-04-22T16:50:17Z</time></trkpt><trkpt lat="45.76507760195668" lon="11.474438125936496"><ele>223.0</ele><time>2026-04-22T16:50:25Z</time></trkpt><trkpt lat="45.76512272143583" lon="11.474502196530702"><ele>223.0</ele><time>2026-04-22T16:50:30Z</time></trkpt><trkpt lat="45.76519028885597" lon="11.474529107475032"><ele>223.0</ele><time>2026-04-22T16:50:35Z</time></trkpt><trkpt lat="45.765257677462586" lon="11.474515012602911"><ele>225.14285714285714</ele><time>2026-04-22T16:50:39Z</time></trkpt><trkpt lat="45.76532325004985" lon="11.474502638742727"><ele>227.28571428571428</ele><time>2026-04-22T16:50:44Z</time></trkpt><trkpt lat="45.76538313609703" lon="11.474456478044253"><ele>229.42857142857144</ele><time>2026-04-22T16:50:50Z</time></trkpt><trkpt lat="45.765402459575164" lon="11.474362962458105"><ele>231.57142857142856</ele><time>2026-04-22T16:50:59Z</time></trkpt><trkpt lat="45.76537497465503" lon="11.474279915129793"><ele>233.71428571428572</ele><time>2026-04-22T16:51:05Z</time></trkpt><trkpt lat="45.76534319749494" lon="11.474186631742219"><ele>235.85714285714286</ele><time>2026-04-22T16:51:13Z</time></trkpt><trkpt lat="45.765318675871875" lon="11.474097248233678"><ele>238.0</ele><time>2026-04-22T16:51:21Z</time></trkpt><trkpt lat="45.76530346695438" lon="11.473981396973647"><ele>238.0</ele><time>2026-04-22T16:51:28Z</time></trkpt><trkpt lat="45.76532073077737" lon="11.473893532922212"><ele>238.0</ele><time>2026-04-22T16:51:34Z</time></trkpt><trkpt lat="45.76538771384827" lon="11.473867934355921"><ele>238.0</ele><time>2026-04-22T16:51:55Z</time></trkpt><trkpt lat="45.76544721630062" lon="11.473821657683162"><ele>238.0</ele><time>2026-04-22T16:52:22Z</time></trkpt><trkpt lat="45.765446571283746" lon="11.473728794679362"><ele>238.0</ele><time>2026-04-22T16:52:37Z</time></trkpt><trkpt lat="45.76546640584779" lon="11.473642656326753"><ele>238.0</ele><time>2026-04-22T16:53:01Z</time></trkpt><trkpt lat="45.76556168375298" lon="11.473627158566229"><ele>238.0</ele><time>2026-04-22T16:53:19.001Z</time></trkpt><trkpt lat="45.7656314104067" lon="11.473625977095049"><ele>238.71428571428572</ele><time>2026-04-22T16:53:27.001Z</time></trkpt><trkpt lat="45.7657043412046" lon="11.473643926860271"><ele>239.42857142857144</ele><time>2026-04-22T16:53:33Z</time></trkpt><trkpt lat="45.76576966468341" lon="11.473658811544878"><ele>240.14285714285714</ele><time>2026-04-22T16:53:39Z</time></trkpt><trkpt lat="45.765837572650014" lon="11.473679833390978"><ele>240.85714285714286</ele><time>2026-04-22T16:53:47Z</time></trkpt><trkpt lat="45.765878011369196" lon="11.473602200051564"><ele>241.57142857142858</ele><time>2026-04-22T16:53:54Z</time></trkpt><trkpt lat="45.765900249369366" lon="11.473514528696315"><ele>242.28571428571428</ele><time>2026-04-22T16:54:00Z</time></trkpt><trkpt lat="45.765913324610665" lon="11.473424342189096"><ele>243.0</ele><time>2026-04-22T16:54:06Z</time></trkpt><trkpt lat="45.765928586429666" lon="11.473318599128874"><ele>243.0</ele><time>2026-04-22T16:54:13Z</time></trkpt><trkpt lat="45.76595231149914" lon="11.473222800159347"><ele>243.0</ele><time>2026-04-22T16:54:19Z</time></trkpt><trkpt lat="45.765977220308976" lon="11.47311983384923"><ele>243.0</ele><time>2026-04-22T16:54:25Z</time></trkpt><trkpt lat="45.76599101704454" lon="11.473025436983383"><ele>243.0</ele><time>2026-04-22T16:54:31Z</time></trkpt><trkpt lat="45.76601648828756" lon="11.472935385573253"><ele>243.0</ele><time>2026-04-22T16:54:37Z</time></trkpt><trkpt lat="45.76604464515666" lon="11.472849738600475"><ele>243.0</ele><time>2026-04-22T16:54:42Z</time></trkpt><trkpt lat="45.76607236033792" lon="11.472759669369026"><ele>243.0</ele><time>2026-04-22T16:54:47Z</time></trkpt><trkpt lat="45.76611033101402" lon="11.472678504989753"><ele>244.71428571428572</ele><time>2026-04-22T16:54:52Z</time></trkpt><trkpt lat="45.76614596465245" lon="11.472596352040892"><ele>246.42857142857144</ele><time>2026-04-22T16:54:57Z</time></trkpt><trkpt lat="45.76618832712662" lon="11.472518607994846"><ele>248.14285714285717</ele><time>2026-04-22T16:55:02Z</time></trkpt><trkpt lat="45.76623069295594" lon="11.47244663777211"><ele>249.85714285714286</ele><time>2026-04-22T16:55:07Z</time></trkpt><trkpt lat="45.766270086832456" lon="11.472365849271243"><ele>251.5714285714286</ele><time>2026-04-22T16:55:12Z</time></trkpt><trkpt lat="45.766309374430094" lon="11.472277475513357"><ele>253.2857142857143</ele><time>2026-04-22T16:55:18.001Z</time></trkpt><trkpt lat="45.76635394333557" lon="11.47219810438986"><ele>255.0</ele><time>2026-04-22T16:55:23.001Z</time></trkpt><trkpt lat="45.766380683744565" lon="11.472110938589786"><ele>255.0</ele><time>2026-04-22T16:55:28.001Z</time></trkpt><trkpt lat="45.76640994898382" lon="11.47202834641564"><ele>255.00000000000003</ele><time>2026-04-22T16:55:33.001Z</time></trkpt><trkpt lat="45.766442933167795" lon="11.471946586036738"><ele>255.0</ele><time>2026-04-22T16:55:38Z</time></trkpt><trkpt lat="45.76648178596621" lon="11.471869070768433"><ele>255.0</ele><time>2026-04-22T16:55:55Z</time></trkpt><trkpt lat="45.76654527865356" lon="11.471879999318276"><ele>255.00000000000003</ele><time>2026-04-22T16:56:01Z</time></trkpt><trkpt lat="45.76658960459715" lon="11.471946427885413"><ele>255.0</ele><time>2026-04-22T16:56:14Z</time></trkpt><trkpt lat="45.766613206044745" lon="11.472033747628263"><ele>255.0</ele><time>2026-04-22T16:56:21Z</time></trkpt><trkpt lat="45.76664149697691" lon="11.472125867802337"><ele>255.0</ele><time>2026-04-22T16:56:27Z</time></trkpt><trkpt lat="45.76667269226214" lon="11.472217198397624"><ele>255.00000000000003</ele><time>2026-04-22T16:56:34Z</time></trkpt><trkpt lat="45.766692001696825" lon="11.472308414725156"><ele>255.0</ele><time>2026-04-22T16:56:40Z</time></trkpt><trkpt lat="45.766713786513584" lon="11.472394521349875"><ele>255.0</ele><time>2026-04-22T16:56:45Z</time></trkpt><trkpt lat="45.76672457836053" lon="11.47249185212822"><ele>255.00000000000003</ele><time>2026-04-22T16:56:50Z</time></trkpt><trkpt lat="45.766718222627375" lon="11.472600782042472"><ele>255.0</ele><time>2026-04-22T16:56:56Z</time></trkpt><trkpt lat="45.76672586394535" lon="11.47271395914458"><ele>255.0</ele><time>2026-04-22T16:57:02Z</time></trkpt><trkpt lat="45.76672537137572" lon="11.47282156169422"><ele>255.0</ele><time>2026-04-22T16:57:07Z</time></trkpt><trkpt lat="45.766770515869304" lon="11.472889610012784"><ele>255.00000000000003</ele><time>2026-04-22T16:57:12Z</time></trkpt><trkpt lat="45.76683624219548" lon="11.472933944646318"><ele>255.0</ele><time>2026-04-22T16:57:18Z</time></trkpt><trkpt lat="45.76689512755717" lon="11.472973761162502"><ele>255.0</ele><time>2026-04-22T16:57:23.001Z</time></trkpt><trkpt lat="45.766962627358" lon="11.473000467900215"><ele>255.00000000000003</ele><time>2026-04-22T16:57:29.001Z</time></trkpt><trkpt lat="45.767020653000344" lon="11.473042091538511"><ele>255.0</ele><time>2026-04-22T16:57:35.001Z</time></trkpt><trkpt lat="45.76707974930413" lon="11.473099889066413"><ele>255.0</ele><time>2026-04-22T16:57:41Z</time></trkpt><trkpt lat="45.76714224606463" lon="11.473123640290428"><ele>257.14285714285717</ele><time>2026-04-22T16:57:48Z</time></trkpt><trkpt lat="45.76720526661922" lon="11.47308633523648"><ele>259.28571428571433</ele><time>2026-04-22T16:57:54Z</time></trkpt><trkpt lat="45.767262123079625" lon="11.473021713108485"><ele>261.42857142857144</ele><time>2026-04-22T16:58:00Z</time></trkpt><trkpt lat="45.76729891389806" lon="11.472935205586753"><ele>263.57142857142856</ele><time>2026-04-22T16:58:36Z</time></trkpt><trkpt lat="45.76734621262173" lon="11.472853587455102"><ele>265.71428571428567</ele><time>2026-04-22T16:58:42Z</time></trkpt><trkpt lat="45.76737515121791" lon="11.472754689420539"><ele>267.85714285714283</ele><time>2026-04-22T16:58:48Z</time></trkpt><trkpt lat="45.76740785952134" lon="11.472670824881872"><ele>270.0</ele><time>2026-04-22T16:58:55Z</time></trkpt><trkpt lat="45.767446312101065" lon="11.47259859047051"><ele>270.0</ele><time>2026-04-22T16:59:00Z</time></trkpt><trkpt lat="45.76748727815527" lon="11.472520320036432"><ele>270.0</ele><time>2026-04-22T16:59:06Z</time></trkpt><trkpt lat="45.76755540704447" lon="11.472470959795452"><ele>270.0</ele><time>2026-04-22T16:59:11Z</time></trkpt><trkpt lat="45.767625715857385" lon="11.472447633007503"><ele>270.0</ele><time>2026-04-22T16:59:16Z</time></trkpt><trkpt lat="45.76769762160502" lon="11.472447163003272"><ele>270.0</ele><time>2026-04-22T16:59:21Z</time></trkpt><trkpt lat="45.76776309669636" lon="11.472404802026325"><ele>270.0</ele><time>2026-04-22T16:59:27Z</time></trkpt><trkpt lat="45.76777075648742" lon="11.472306158153994"><ele>270.0</ele><time>2026-04-22T16:59:33Z</time></trkpt><trkpt lat="45.767750826209955" lon="11.472207153439008"><ele>272.2857142857143</ele><time>2026-04-22T16:59:39Z</time></trkpt><trkpt lat="45.767743538024185" lon="11.472104714389832"><ele>274.57142857142856</ele><time>2026-04-22T16:59:45Z</time></trkpt><trkpt lat="45.76773472288935" lon="11.472001526917998"><ele>276.85714285714283</ele><time>2026-04-22T16:59:51Z</time></trkpt><trkpt lat="45.76773488273694" lon="11.471911121913578"><ele>279.1428571428571</ele><time>2026-04-22T16:59:57Z</time></trkpt><trkpt lat="45.76774434870944" lon="11.471808077961581"><ele>281.42857142857144</ele><time>2026-04-22T17:00:03Z</time></trkpt><trkpt lat="45.76776387536494" lon="11.471714904126495"><ele>283.71428571428567</ele><time>2026-04-22T17:00:09Z</time></trkpt><trkpt lat="45.76778307248657" lon="11.47161892102028"><ele>286.0</ele><time>2026-04-22T17:00:14Z</time></trkpt><trkpt lat="45.76778627447706" lon="11.471512605865005"><ele>285.99999999999994</ele><time>2026-04-22T17:00:20Z</time></trkpt><trkpt lat="45.76780204091717" lon="11.471424940311225"><ele>286.0</ele><time>2026-04-22T17:00:24Z</time></trkpt><trkpt lat="45.76782036670658" lon="11.471327756419296"><ele>286.0</ele><time>2026-04-22T17:00:29Z</time></trkpt><trkpt lat="45.76783174907235" lon="11.471233288393817"><ele>286.0</ele><time>2026-04-22T17:00:34Z</time></trkpt><trkpt lat="45.76784454789156" lon="11.471138424203307"><ele>286.0</ele><time>2026-04-22T17:00:39Z</time></trkpt><trkpt lat="45.76787169526441" lon="11.471049054031084"><ele>285.99999999999994</ele><time>2026-04-22T17:00:44Z</time></trkpt><trkpt lat="45.76790327648005" lon="11.470965201557654"><ele>286.0</ele><time>2026-04-22T17:00:49Z</time></trkpt><trkpt lat="45.76791872727073" lon="11.470877325854197"><ele>285.85714285714283</ele><time>2026-04-22T17:00:54Z</time></trkpt><trkpt lat="45.76795550956107" lon="11.470787162252467"><ele>285.7142857142857</ele><time>2026-04-22T17:01:18Z</time></trkpt><trkpt lat="45.767980249834594" lon="11.470702279166375"><ele>285.57142857142856</ele><time>2026-04-22T17:01:24Z</time></trkpt><trkpt lat="45.768004519153585" lon="11.470611816926452"><ele>285.42857142857144</ele><time>2026-04-22T17:01:30Z</time></trkpt><trkpt lat="45.76802720447729" lon="11.470512305578"><ele>285.2857142857143</ele><time>2026-04-22T17:01:35Z</time></trkpt><trkpt lat="45.76802409102112" lon="11.470410488835494"><ele>285.1428571428571</ele><time>2026-04-22T17:01:40Z</time></trkpt><trkpt lat="45.76800700951163" lon="11.47031979314558"><ele>285.0</ele><time>2026-04-22T17:01:45Z</time></trkpt><trkpt lat="45.76800505411048" lon="11.470214568308787"><ele>284.7142857142857</ele><time>2026-04-22T17:01:51Z</time></trkpt><trkpt lat="45.76801249879795" lon="11.470120214439069"><ele>284.42857142857144</ele><time>2026-04-22T17:01:56Z</time></trkpt><trkpt lat="45.76803468408903" lon="11.470032852253054"><ele>284.14285714285717</ele><time>2026-04-22T17:02:01Z</time></trkpt><trkpt lat="45.7680783917307" lon="11.469966208299272"><ele>283.8571428571429</ele><time>2026-04-22T17:02:06Z</time></trkpt><trkpt lat="45.76809879932449" lon="11.46987563927496"><ele>283.5714285714286</ele><time>2026-04-22T17:02:11Z</time></trkpt><trkpt lat="45.76814556545076" lon="11.46981052045674"><ele>283.2857142857143</ele><time>2026-04-22T17:02:16Z</time></trkpt><trkpt lat="45.76820813575249" lon="11.469770016479817"><ele>283.0</ele><time>2026-04-22T17:02:21Z</time></trkpt><trkpt lat="45.7682800321224" lon="11.469778154961784"><ele>283.0</ele><time>2026-04-22T17:02:27Z</time></trkpt><trkpt lat="45.76834708289079" lon="11.469805261919415"><ele>283.0</ele><time>2026-04-22T17:02:33Z</time></trkpt><trkpt lat="45.76839586938144" lon="11.469868776808053"><ele>283.0</ele><time>2026-04-22T17:02:38Z</time></trkpt><trkpt lat="45.76846031916149" lon="11.469878996773966"><ele>283.0</ele><time>2026-04-22T17:02:43Z</time></trkpt><trkpt lat="45.76849913347528" lon="11.469800680993819"><ele>283.0</ele><time>2026-04-22T17:02:48Z</time></trkpt><trkpt lat="45.76851522758585" lon="11.469702663566627"><ele>283.0</ele><time>2026-04-22T17:02:53Z</time></trkpt><trkpt lat="45.768533047774724" lon="11.469615671871168"><ele>283.0</ele><time>2026-04-22T17:02:58Z</time></trkpt><trkpt lat="45.76857400857161" lon="11.469543948842125"><ele>283.8571428571429</ele><time>2026-04-22T17:03:03Z</time></trkpt><trkpt lat="45.768618970163466" lon="11.46946125528335"><ele>284.7142857142857</ele><time>2026-04-22T17:03:09Z</time></trkpt><trkpt lat="45.76865764398078" lon="11.469375893147092"><ele>285.57142857142856</ele><time>2026-04-22T17:03:15Z</time></trkpt><trkpt lat="45.768695929210836" lon="11.46928852012989"><ele>286.42857142857144</ele><time>2026-04-22T17:03:21Z</time></trkpt><trkpt lat="45.76872783425908" lon="11.469206276037163"><ele>287.2857142857143</ele><time>2026-04-22T17:03:26Z</time></trkpt><trkpt lat="45.76875931069169" lon="11.469106640166746"><ele>288.14285714285717</ele><time>2026-04-22T17:03:32Z</time></trkpt><trkpt lat="45.768801444489206" lon="11.469034596874593"><ele>289.0</ele><time>2026-04-22T17:03:36.999Z</time></trkpt><trkpt lat="45.768842049222336" lon="11.468962836342374"><ele>289.0</ele><time>2026-04-22T17:03:42Z</time></trkpt><trkpt lat="45.768885196899966" lon="11.468884144329033"><ele>289.0</ele><time>2026-04-22T17:03:48Z</time></trkpt><trkpt lat="45.76892564855612" lon="11.468794258628545"><ele>289.0</ele><time>2026-04-22T17:03:54Z</time></trkpt><trkpt lat="45.768974331453876" lon="11.46873396527275"><ele>289.0</ele><time>2026-04-22T17:03:59Z</time></trkpt><trkpt lat="45.76899244867482" lon="11.468632745365477"><ele>289.0</ele><time>2026-04-22T17:04:04Z</time></trkpt><trkpt lat="45.76904502956979" lon="11.46856610485818"><ele>289.0</ele><time>2026-04-22T17:04:09Z</time></trkpt><trkpt lat="45.76907187109417" lon="11.468463864856705"><ele>289.0</ele><time>2026-04-22T17:04:15Z</time></trkpt><trkpt lat="45.76909114487778" lon="11.468377082396938"><ele>288.57142857142856</ele><time>2026-04-22T17:04:20Z</time></trkpt><trkpt lat="45.769122149530084" lon="11.468286067514377"><ele>288.1428571428571</ele><time>2026-04-22T17:04:25Z</time></trkpt><trkpt lat="45.76915356616744" lon="11.468194958233717"><ele>287.71428571428567</ele><time>2026-04-22T17:04:30Z</time></trkpt><trkpt lat="45.76914957586432" lon="11.46808714296372"><ele>287.2857142857143</ele><time>2026-04-22T17:04:36Z</time></trkpt><trkpt lat="45.769153476295074" lon="11.467991843902622"><ele>286.85714285714283</ele><time>2026-04-22T17:04:41Z</time></trkpt><trkpt lat="45.76917302814569" lon="11.467887292502075"><ele>286.4285714285714</ele><time>2026-04-22T17:04:46Z</time></trkpt><trkpt lat="45.76917057647217" lon="11.46779045537314"><ele>286.0</ele><time>2026-04-22T17:04:51Z</time></trkpt><trkpt lat="45.76917068353707" lon="11.467695249508543"><ele>285.2857142857143</ele><time>2026-04-22T17:04:56Z</time></trkpt><trkpt lat="45.76918666524278" lon="11.467590472563668"><ele>284.57142857142856</ele><time>2026-04-22T17:05:02Z</time></trkpt><trkpt lat="45.769214609724415" lon="11.467489743346668"><ele>283.8571428571429</ele><time>2026-04-22T17:05:07Z</time></trkpt><trkpt lat="45.769248096137844" lon="11.467397033678159"><ele>283.1428571428571</ele><time>2026-04-22T17:05:12Z</time></trkpt><trkpt lat="45.76925589465143" lon="11.46729658168759"><ele>282.42857142857144</ele><time>2026-04-22T17:05:18Z</time></trkpt><trkpt lat="45.76926601608947" lon="11.467195624140773"><ele>281.7142857142857</ele><time>2026-04-22T17:05:23Z</time></trkpt><trkpt lat="45.76925934283886" lon="11.46709866736375"><ele>281.0</ele><time>2026-04-22T17:05:27Z</time></trkpt><trkpt lat="45.769258052831546" lon="11.466995114869622"><ele>280.00000000000006</ele><time>2026-04-22T17:05:31Z</time></trkpt><trkpt lat="45.76930598189208" lon="11.466910242873558"><ele>279.0</ele><time>2026-04-22T17:05:36Z</time></trkpt><trkpt lat="45.76928626333954" lon="11.466818642773882"><ele>278.0</ele><time>2026-04-22T17:05:42.999Z</time></trkpt><trkpt lat="45.7692435642065" lon="11.46674664879838"><ele>277.0</ele><time>2026-04-22T17:05:47Z</time></trkpt><trkpt lat="45.76918769461592" lon="11.466685087225777"><ele>276.0</ele><time>2026-04-22T17:05:52Z</time></trkpt><trkpt lat="45.76912100231428" lon="11.466632612104943"><ele>275.00000000000006</ele><time>2026-04-22T17:05:58Z</time></trkpt><trkpt lat="45.76908424960407" lon="11.46653658443003"><ele>274.0</ele><time>2026-04-22T17:06:03Z</time></trkpt><trkpt lat="45.76905103642294" lon="11.466459246746835"><ele>274.00000000000006</ele><time>2026-04-22T17:06:08Z</time></trkpt><trkpt lat="45.76902727653948" lon="11.466367801815116"><ele>274.0</ele><time>2026-04-22T17:06:13Z</time></trkpt><trkpt lat="45.76901699265262" lon="11.466263959778036"><ele>274.0</ele><time>2026-04-22T17:06:19Z</time></trkpt><trkpt lat="45.76903557048023" lon="11.466163954314469"><ele>274.0</ele><time>2026-04-22T17:06:25Z</time></trkpt><trkpt lat="45.76905880457411" lon="11.466078540279337"><ele>274.0</ele><time>2026-04-22T17:06:30Z</time></trkpt><trkpt lat="45.76904076027671" lon="11.465973587206806"><ele>274.00000000000006</ele><time>2026-04-22T17:06:35Z</time></trkpt><trkpt lat="45.76903954200965" lon="11.465881684444309"><ele>274.0</ele><time>2026-04-22T17:06:39Z</time></trkpt><trkpt lat="45.7690143814638" lon="11.465787222635688"><ele>273.42857142857144</ele><time>2026-04-22T17:06:44Z</time></trkpt><trkpt lat="45.76900887407243" lon="11.465696457178602"><ele>272.8571428571429</ele><time>2026-04-22T17:06:49Z</time></trkpt><trkpt lat="45.76901426273851" lon="11.465590314968237"><ele>272.2857142857143</ele><time>2026-04-22T17:06:54Z</time></trkpt><trkpt lat="45.769008743201" lon="11.465479460747938"><ele>271.7142857142857</ele><time>2026-04-22T17:07:00Z</time></trkpt><trkpt lat="45.76899913751961" lon="11.46537952022286"><ele>271.1428571428571</ele><time>2026-04-22T17:07:05Z</time></trkpt><trkpt lat="45.7689831596457" lon="11.465272987337881"><ele>270.57142857142856</ele><time>2026-04-22T17:07:12Z</time></trkpt><trkpt lat="45.76898699183975" lon="11.46517464153403"><ele>270.0</ele><time>2026-04-22T17:07:17Z</time></trkpt><trkpt lat="45.76898019421284" lon="11.465063461281236"><ele>270.0</ele><time>2026-04-22T17:07:22Z</time></trkpt><trkpt lat="45.76896115743421" lon="11.464976614006966"><ele>270.0</ele><time>2026-04-22T17:07:26Z</time></trkpt><trkpt lat="45.768947956407494" lon="11.464881253467679"><ele>270.0</ele><time>2026-04-22T17:07:31Z</time></trkpt><trkpt lat="45.76893857743935" lon="11.464780736041732"><ele>270.0</ele><time>2026-04-22T17:07:37Z</time></trkpt><trkpt lat="45.768928657474746" lon="11.464686102238462"><ele>270.0</ele><time>2026-04-22T17:07:42Z</time></trkpt><trkpt lat="45.76891092021804" lon="11.4645846442783"><ele>270.0</ele><time>2026-04-22T17:07:46.999Z</time></trkpt><trkpt lat="45.76891661845961" lon="11.464479223148464"><ele>270.0</ele><time>2026-04-22T17:07:51.999Z</time></trkpt><trkpt lat="45.76892190239123" lon="11.464386669109972"><ele>269.1428571428571</ele><time>2026-04-22T17:07:59Z</time></trkpt><trkpt lat="45.768966453303165" lon="11.464317432554898"><ele>268.2857142857143</ele><time>2026-04-22T17:08:07Z</time></trkpt><trkpt lat="45.76901042957825" lon="11.464249364329559"><ele>267.42857142857144</ele><time>2026-04-22T17:08:15Z</time></trkpt><trkpt lat="45.76906416463649" lon="11.464186698410582"><ele>266.57142857142856</ele><time>2026-04-22T17:08:22Z</time></trkpt><trkpt lat="45.76911187656356" lon="11.464119432185866"><ele>265.7142857142857</ele><time>2026-04-22T17:08:26Z</time></trkpt><trkpt lat="45.7691590302198" lon="11.464047793199926"><ele>264.85714285714283</ele><time>2026-04-22T17:08:31Z</time></trkpt><trkpt lat="45.76920580398214" lon="11.463977528164758"><ele>264.0</ele><time>2026-04-22T17:08:36Z</time></trkpt><trkpt lat="45.76925944553692" lon="11.463913146902271"><ele>264.0</ele><time>2026-04-22T17:08:41Z</time></trkpt><trkpt lat="45.769311378929444" lon="11.463838509970621"><ele>264.0</ele><time>2026-04-22T17:08:47Z</time></trkpt><trkpt lat="45.769365251529344" lon="11.46376791002332"><ele>264.0</ele><time>2026-04-22T17:08:53Z</time></trkpt><trkpt lat="45.76941978907391" lon="11.463694223191899"><ele>264.0</ele><time>2026-04-22T17:08:59Z</time></trkpt><trkpt lat="45.76945928640905" lon="11.463623157733592"><ele>264.0</ele><time>2026-04-22T17:09:04Z</time></trkpt><trkpt lat="45.76952830976956" lon="11.463620034619742"><ele>264.0</ele><time>2026-04-22T17:09:09Z</time></trkpt><trkpt lat="45.76959448847912" lon="11.463578894623362"><ele>264.0</ele><time>2026-04-22T17:09:15Z</time></trkpt><trkpt lat="45.76966370131793" lon="11.463544880586493"><ele>262.1428571428571</ele><time>2026-04-22T17:09:24Z</time></trkpt><trkpt lat="45.76970780862156" lon="11.463462540177394"><ele>260.2857142857143</ele><time>2026-04-22T17:09:30Z</time></trkpt><trkpt lat="45.76976277400308" lon="11.463398859738737"><ele>258.42857142857144</ele><time>2026-04-22T17:09:35Z</time></trkpt><trkpt lat="45.76981855470322" lon="11.463355009231483"><ele>256.57142857142856</ele><time>2026-04-22T17:09:39Z</time></trkpt><trkpt lat="45.76987591569424" lon="11.463315951128287"><ele>254.71428571428572</ele><time>2026-04-22T17:09:43Z</time></trkpt><trkpt lat="45.7699370856864" lon="11.463287551334457"><ele>252.85714285714283</ele><time>2026-04-22T17:09:48Z</time></trkpt><trkpt lat="45.77000438808176" lon="11.463327253387035"><ele>250.99999999999997</ele><time>2026-04-22T17:09:54.999Z</time></trkpt><trkpt lat="45.770082452058105" lon="11.463345392987549"><ele>250.99999999999997</ele><time>2026-04-22T17:10:01Z</time></trkpt><trkpt lat="45.77014971201971" lon="11.463352184464222"><ele>251.0</ele><time>2026-04-22T17:10:05Z</time></trkpt><trkpt lat="45.77022061381212" lon="11.463359628506767"><ele>250.99999999999997</ele><time>2026-04-22T17:10:10Z</time></trkpt><trkpt lat="45.770283934031866" lon="11.463335158030771"><ele>250.99999999999997</ele><time>2026-04-22T17:10:15Z</time></trkpt><trkpt lat="45.770348302669106" lon="11.463293550149864"><ele>251.0</ele><time>2026-04-22T17:10:20Z</time></trkpt><trkpt lat="45.77041337459708" lon="11.463273674751369"><ele>250.99999999999997</ele><time>2026-04-22T17:10:25Z</time></trkpt><trkpt lat="45.77047160413239" lon="11.46333364715901"><ele>250.99999999999997</ele><time>2026-04-22T17:10:30Z</time></trkpt><trkpt lat="45.77053090242426" lon="11.463367494194754"><ele>251.1428571428571</ele><time>2026-04-22T17:10:35Z</time></trkpt><trkpt lat="45.770594128611066" lon="11.46339803089687"><ele>251.28571428571428</ele><time>2026-04-22T17:10:40Z</time></trkpt><trkpt lat="45.77065693525576" lon="11.46343551824049"><ele>251.42857142857142</ele><time>2026-04-22T17:10:45Z</time></trkpt><trkpt lat="45.770717841692765" lon="11.463465962094512"><ele>251.57142857142856</ele><time>2026-04-22T17:10:50Z</time></trkpt><trkpt lat="45.77078150096349" lon="11.463461875141226"><ele>251.71428571428572</ele><time>2026-04-22T17:10:56Z</time></trkpt><trkpt lat="45.77084870100075" lon="11.463434025417506"><ele>251.85714285714286</ele><time>2026-04-22T17:11:01Z</time></trkpt><trkpt lat="45.7709101612496" lon="11.463392410836317"><ele>252.0</ele><time>2026-04-22T17:11:05Z</time></trkpt><trkpt lat="45.77098090400384" lon="11.463357216261999"><ele>253.57142857142856</ele><time>2026-04-22T17:11:12Z</time></trkpt><trkpt lat="45.771047858395555" lon="11.463324381328418"><ele>255.14285714285714</ele><time>2026-04-22T17:11:18Z</time></trkpt><trkpt lat="45.771091050923836" lon="11.463243875116731"><ele>256.7142857142857</ele><time>2026-04-22T17:11:24Z</time></trkpt><trkpt lat="45.7711276406739" lon="11.463163476699304"><ele>258.2857142857143</ele><time>2026-04-22T17:11:30Z</time></trkpt><trkpt lat="45.77117134166111" lon="11.463076915402073"><ele>259.85714285714283</ele><time>2026-04-22T17:11:35Z</time></trkpt><trkpt lat="45.77119723501724" lon="11.462982520944601"><ele>261.42857142857144</ele><time>2026-04-22T17:11:41Z</time></trkpt><trkpt lat="45.77121590437717" lon="11.46288154024974"><ele>263.0</ele><time>2026-04-22T17:11:47Z</time></trkpt><trkpt lat="45.771226746825334" lon="11.462777803995902"><ele>263.0</ele><time>2026-04-22T17:11:52Z</time></trkpt><trkpt lat="45.771241974834695" lon="11.462686531915594"><ele>263.0</ele><time>2026-04-22T17:11:56.999Z</time></trkpt><trkpt lat="45.77123887980347" lon="11.462580816421038"><ele>263.0</ele><time>2026-04-22T17:12:01.999Z</time></trkpt><trkpt lat="45.771249487531925" lon="11.462481095702609"><ele>263.0</ele><time>2026-04-22T17:12:10Z</time></trkpt><trkpt lat="45.77126875657443" lon="11.462391735377102"><ele>263.0</ele><time>2026-04-22T17:12:16Z</time></trkpt><trkpt lat="45.77128602184501" lon="11.462295376509307"><ele>263.0</ele><time>2026-04-22T17:12:22Z</time></trkpt><trkpt lat="45.771306563261675" lon="11.462196563814848"><ele>263.0</ele><time>2026-04-22T17:12:28Z</time></trkpt><trkpt lat="45.771329922809045" lon="11.462106840232172"><ele>262.1428571428571</ele><time>2026-04-22T17:12:33Z</time></trkpt><trkpt lat="45.77135811492407" lon="11.462014514283744"><ele>261.2857142857143</ele><time>2026-04-22T17:12:39Z</time></trkpt><trkpt lat="45.77138543066091" lon="11.461915977355519"><ele>260.42857142857144</ele><time>2026-04-22T17:12:45Z</time></trkpt><trkpt lat="45.77142153639578" lon="11.461834100549424"><ele>259.57142857142856</ele><time>2026-04-22T17:12:50Z</time></trkpt><trkpt lat="45.77145378076333" lon="11.461743586240013"><ele>258.7142857142857</ele><time>2026-04-22T17:12:55Z</time></trkpt><trkpt lat="45.771486564899796" lon="11.461661612998407"><ele>257.85714285714283</ele><time>2026-04-22T17:13:00Z</time></trkpt><trkpt lat="45.77151884925461" lon="11.4615639929856"><ele>257.0</ele><time>2026-04-22T17:13:05Z</time></trkpt><trkpt lat="45.771545420280034" lon="11.461472642151536"><ele>257.0</ele><time>2026-04-22T17:13:10Z</time></trkpt><trkpt lat="45.771584098813264" lon="11.461382201620694"><ele>257.0</ele><time>2026-04-22T17:13:15Z</time></trkpt><trkpt lat="45.771615561060024" lon="11.46129985807187"><ele>257.0</ele><time>2026-04-22T17:13:20Z</time></trkpt><trkpt lat="45.7716583563264" lon="11.461216394180191"><ele>257.0</ele><time>2026-04-22T17:13:26Z</time></trkpt><trkpt lat="45.771689601738906" lon="11.46113611840281"><ele>257.0</ele><time>2026-04-22T17:13:31Z</time></trkpt><trkpt lat="45.771723219306985" lon="11.46105869997812"><ele>257.0</ele><time>2026-04-22T17:13:36Z</time></trkpt><trkpt lat="45.771768327626475" lon="11.460992309780142"><ele>257.0</ele><time>2026-04-22T17:13:41Z</time></trkpt><trkpt lat="45.77181326447889" lon="11.460920153520807"><ele>257.85714285714283</ele><time>2026-04-22T17:13:46Z</time></trkpt><trkpt lat="45.77186138480429" lon="11.460849629331921"><ele>258.7142857142857</ele><time>2026-04-22T17:13:51Z</time></trkpt><trkpt lat="45.771892776639305" lon="11.460750038898281"><ele>259.57142857142856</ele><time>2026-04-22T17:13:58Z</time></trkpt><trkpt lat="45.77191751823768" lon="11.460645801127875"><ele>260.42857142857144</ele><time>2026-04-22T17:14:03.999Z</time></trkpt><trkpt lat="45.77196749544438" lon="11.460589654609851"><ele>261.2857142857143</ele><time>2026-04-22T17:14:12Z</time></trkpt><trkpt lat="45.772023957242645" lon="11.460541558936255"><ele>262.1428571428571</ele><time>2026-04-22T17:14:17Z</time></trkpt><trkpt lat="45.772086841230234" lon="11.460497390100558"><ele>263.0</ele><time>2026-04-22T17:14:23Z</time></trkpt><trkpt lat="45.772150686825064" lon="11.4604820056813"><ele>263.0</ele><time>2026-04-22T17:14:29Z</time></trkpt><trkpt lat="45.772213534139475" lon="11.460456438872882"><ele>263.0</ele><time>2026-04-22T17:14:37Z</time></trkpt><trkpt lat="45.772281883350814" lon="11.460458677928854"><ele>263.0</ele><time>2026-04-22T17:14:42Z</time></trkpt><trkpt lat="45.77235031448786" lon="11.460446003332658"><ele>263.0</ele><time>2026-04-22T17:14:49Z</time></trkpt><trkpt lat="45.772415984348235" lon="11.460378095169542"><ele>263.0</ele><time>2026-04-22T17:14:54Z</time></trkpt><trkpt lat="45.77246937214572" lon="11.46030389825697"><ele>263.0</ele><time>2026-04-22T17:14:59Z</time></trkpt><trkpt lat="45.772498711133935" lon="11.460217324651587"><ele>263.0</ele><time>2026-04-22T17:15:03Z</time></trkpt><trkpt lat="45.77252453986717" lon="11.46012275514715"><ele>263.57142857142856</ele><time>2026-04-22T17:15:07Z</time></trkpt><trkpt lat="45.77256412784987" lon="11.46004260323066"><ele>264.1428571428571</ele><time>2026-04-22T17:15:12Z</time></trkpt><trkpt lat="45.772599969480815" lon="11.459962315673723"><ele>264.7142857142857</ele><time>2026-04-22T17:15:17Z</time></trkpt><trkpt lat="45.772632421378624" lon="11.459869879056804"><ele>265.2857142857143</ele><time>2026-04-22T17:15:23Z</time></trkpt><trkpt lat="45.77266298077264" lon="11.459784699747878"><ele>265.8571428571429</ele><time>2026-04-22T17:15:28Z</time></trkpt><trkpt lat="45.77269966639516" lon="11.45969476143499"><ele>266.42857142857144</ele><time>2026-04-22T17:15:33Z</time></trkpt><trkpt lat="45.77276248533469" lon="11.459635087526708"><ele>267.0</ele><time>2026-04-22T17:15:39Z</time></trkpt><trkpt lat="45.7728038217417" lon="11.45956111231068"><ele>265.28571428571433</ele><time>2026-04-22T17:15:45Z</time></trkpt><trkpt lat="45.77284355901721" lon="11.459475135193477"><ele>263.57142857142856</ele><time>2026-04-22T17:15:51Z</time></trkpt><trkpt lat="45.7728808462889" lon="11.459383663314732"><ele>261.8571428571429</ele><time>2026-04-22T17:15:57Z</time></trkpt><trkpt lat="45.77291197845118" lon="11.459287103542355"><ele>260.14285714285717</ele><time>2026-04-22T17:16:07.999Z</time></trkpt><trkpt lat="45.7729199256689" lon="11.459179353175346"><ele>258.42857142857144</ele><time>2026-04-22T17:16:12.999Z</time></trkpt><trkpt lat="45.77293707055723" lon="11.45908715328751"><ele>256.7142857142857</ele><time>2026-04-22T17:16:18Z</time></trkpt><trkpt lat="45.77297611197084" lon="11.458993596629998"><ele>255.0</ele><time>2026-04-22T17:16:25Z</time></trkpt><trkpt lat="45.77301458282126" lon="11.458892032638442"><ele>255.0</ele><time>2026-04-22T17:16:29Z</time></trkpt><trkpt lat="45.77301488595439" lon="11.458790888401674"><ele>255.00000000000003</ele><time>2026-04-22T17:16:33Z</time></trkpt><trkpt lat="45.77303462018707" lon="11.45869697759958"><ele>255.0</ele><time>2026-04-22T17:16:38Z</time></trkpt><trkpt lat="45.773088626290075" lon="11.458648801330066"><ele>255.0</ele><time>2026-04-22T17:16:43Z</time></trkpt><trkpt lat="45.773145566258584" lon="11.458588968336473"><ele>255.00000000000003</ele><time>2026-04-22T17:16:48Z</time></trkpt><trkpt lat="45.7732018873128" lon="11.458539922894756"><ele>255.0</ele><time>2026-04-22T17:16:53Z</time></trkpt><trkpt lat="45.773264548935515" lon="11.458490827689122"><ele>255.0</ele><time>2026-04-22T17:16:58Z</time></trkpt><trkpt lat="45.77332613120708" lon="11.458450915774394"><ele>254.14285714285717</ele><time>2026-04-22T17:17:03Z</time></trkpt><trkpt lat="45.77339180450896" lon="11.45841101244996"><ele>253.2857142857143</ele><time>2026-04-22T17:17:08Z</time></trkpt><trkpt lat="45.77345856410476" lon="11.45837882769591"><ele>252.42857142857144</ele><time>2026-04-22T17:17:13Z</time></trkpt><trkpt lat="45.77351747747448" lon="11.45831613359458"><ele>251.57142857142856</ele><time>2026-04-22T17:17:19Z</time></trkpt><trkpt lat="45.773585826612795" lon="11.458310251415954"><ele>250.7142857142857</ele><time>2026-04-22T17:17:25Z</time></trkpt><trkpt lat="45.77365053665987" lon="11.458327920792689"><ele>249.85714285714283</ele><time>2026-04-22T17:17:30Z</time></trkpt><trkpt lat="45.773721752384084" lon="11.458291234519487"><ele>249.0</ele><time>2026-04-22T17:17:35Z</time></trkpt><trkpt lat="45.77378843698157" lon="11.458304402784085"><ele>251.28571428571428</ele><time>2026-04-22T17:17:41Z</time></trkpt><trkpt lat="45.773854310102166" lon="11.458299353577859"><ele>253.57142857142856</ele><time>2026-04-22T17:17:47Z</time></trkpt><trkpt lat="45.77389052102247" lon="11.458217370385382"><ele>255.85714285714283</ele><time>2026-04-22T17:17:54Z</time></trkpt><trkpt lat="45.77395751167218" lon="11.458232882608822"><ele>258.1428571428571</ele><time>2026-04-22T17:17:59Z</time></trkpt><trkpt lat="45.77402218447513" lon="11.458256268083659"><ele>260.42857142857144</ele><time>2026-04-22T17:18:06Z</time></trkpt><trkpt lat="45.77407275856123" lon="11.458201264547158"><ele>262.71428571428567</ele><time>2026-04-22T17:18:13Z</time></trkpt><trkpt lat="45.77407965951421" lon="11.458100002512868"><ele>265.0</ele><time>2026-04-22T17:18:18.999Z</time></trkpt><trkpt lat="45.77408012746512" lon="11.458002617334643"><ele>264.4285714285714</ele><time>2026-04-22T17:18:28Z</time></trkpt><trkpt lat="45.77406064599971" lon="11.457914952704662"><ele>263.85714285714283</ele><time>2026-04-22T17:18:38Z</time></trkpt><trkpt lat="45.774029264147295" lon="11.457836552628887"><ele>263.2857142857143</ele><time>2026-04-22T17:18:46Z</time></trkpt><trkpt lat="45.77396705947098" lon="11.45779774849113"><ele>262.71428571428567</ele><time>2026-04-22T17:18:52Z</time></trkpt><trkpt lat="45.7739048027423" lon="11.457773346565462"><ele>262.1428571428571</ele><time>2026-04-22T17:18:57Z</time></trkpt><trkpt lat="45.77384340060684" lon="11.45774627236588"><ele>261.57142857142856</ele><time>2026-04-22T17:19:01Z</time></trkpt><trkpt lat="45.7738137893295" lon="11.457664660200296"><ele>261.0</ele><time>2026-04-22T17:19:07Z</time></trkpt><trkpt lat="45.77376015753486" lon="11.457592861701224"><ele>261.0</ele><time>2026-04-22T17:19:12Z</time></trkpt><trkpt lat="45.77374262459317" lon="11.457498364544932"><ele>261.0</ele><time>2026-04-22T17:19:17Z</time></trkpt><trkpt lat="45.77369501531866" lon="11.45740953600998"><ele>261.0</ele><time>2026-04-22T17:19:23Z</time></trkpt><trkpt lat="45.77364622271862" lon="11.457339776026025"><ele>261.0</ele><time>2026-04-22T17:19:28Z</time></trkpt><trkpt lat="45.77359274746991" lon="11.45727643999739"><ele>261.0</ele><time>2026-04-22T17:19:33Z</time></trkpt><trkpt lat="45.77354763290981" lon="11.457193734384774"><ele>261.0</ele><time>2026-04-22T17:19:38Z</time></trkpt><trkpt lat="45.773500252397376" lon="11.457133865707068"><ele>261.0</ele><time>2026-04-22T17:19:43Z</time></trkpt><trkpt lat="45.77344475606003" lon="11.457083654161801"><ele>259.7142857142857</ele><time>2026-04-22T17:19:48Z</time></trkpt><trkpt lat="45.773387177902016" lon="11.45702908573317"><ele>258.42857142857144</ele><time>2026-04-22T17:19:53Z</time></trkpt><trkpt lat="45.77334510733473" lon="11.456943317701002"><ele>257.1428571428571</ele><time>2026-04-22T17:19:58Z</time></trkpt><trkpt lat="45.77330715146977" lon="11.456871047697685"><ele>255.85714285714286</ele><time>2026-04-22T17:20:03Z</time></trkpt><trkpt lat="45.77323542270004" lon="11.45687834818301"><ele>254.57142857142856</ele><time>2026-04-22T17:20:09Z</time></trkpt><trkpt lat="45.773198473682115" lon="11.456802010950925"><ele>253.28571428571428</ele><time>2026-04-22T17:20:16Z</time></trkpt><trkpt lat="45.77314260328659" lon="11.45673794450411"><ele>252.0</ele><time>2026-04-22T17:20:20.999Z</time></trkpt><trkpt lat="45.77307951044396" lon="11.456769509902912"><ele>252.0</ele><time>2026-04-22T17:20:25.999Z</time></trkpt><trkpt lat="45.77302183005347" lon="11.456846536495702"><ele>252.0</ele><time>2026-04-22T17:20:32Z</time></trkpt><trkpt lat="45.77295572185975" lon="11.45687058699149"><ele>252.0</ele><time>2026-04-22T17:20:38Z</time></trkpt><trkpt lat="45.77293038004774" lon="11.456772073550566"><ele>252.0</ele><time>2026-04-22T17:20:49Z</time></trkpt><trkpt lat="45.772912168928954" lon="11.456675980845784"><ele>252.0</ele><time>2026-04-22T17:20:55Z</time></trkpt><trkpt lat="45.77293734719536" lon="11.456579172885546"><ele>252.0</ele><time>2026-04-22T17:20:59Z</time></trkpt><trkpt lat="45.77293476706253" lon="11.456476510190386"><ele>252.0</ele><time>2026-04-22T17:21:04Z</time></trkpt><trkpt lat="45.77293523657255" lon="11.456384355342038"><ele>252.0</ele><time>2026-04-22T17:21:11Z</time></trkpt><trkpt lat="45.77293402984029" lon="11.456286646993208"><ele>252.0</ele><time>2026-04-22T17:21:17Z</time></trkpt><trkpt lat="45.77293404717187" lon="11.456195334822219"><ele>252.0</ele><time>2026-04-22T17:21:22Z</time></trkpt><trkpt lat="45.77293923185542" lon="11.456086161378474"><ele>252.0</ele><time>2026-04-22T17:21:29Z</time></trkpt><trkpt lat="45.7729330245969" lon="11.455985038573104"><ele>252.0</ele><time>2026-04-22T17:21:36Z</time></trkpt><trkpt lat="45.77293581051845" lon="11.455890154630564"><ele>252.0</ele><time>2026-04-22T17:21:41Z</time></trkpt><trkpt lat="45.77293346195216" lon="11.455794198867904"><ele>252.0</ele><time>2026-04-22T17:21:47Z</time></trkpt><trkpt lat="45.77293222489684" lon="11.455703168547437"><ele>252.14285714285714</ele><time>2026-04-22T17:21:52Z</time></trkpt><trkpt lat="45.77295148759407" lon="11.455600040867827"><ele>252.28571428571428</ele><time>2026-04-22T17:21:57Z</time></trkpt><trkpt lat="45.77295362636095" lon="11.455501332909177"><ele>252.42857142857144</ele><time>2026-04-22T17:22:03Z</time></trkpt><trkpt lat="45.772950570232936" lon="11.455395888202887"><ele>252.57142857142858</ele><time>2026-04-22T17:22:09Z</time></trkpt><trkpt lat="45.772944654606846" lon="11.455302860625618"><ele>252.71428571428572</ele><time>2026-04-22T17:22:14Z</time></trkpt><trkpt lat="45.77294821968739" lon="11.455199760829005"><ele>252.8571428571429</ele><time>2026-04-22T17:22:20Z</time></trkpt><trkpt lat="45.77294420902134" lon="11.455099710315517"><ele>253.00000000000003</ele><time>2026-04-22T17:22:25.999Z</time></trkpt><trkpt lat="45.77294490817785" lon="11.454994882201019"><ele>253.28571428571433</ele><time>2026-04-22T17:22:31.999Z</time></trkpt><trkpt lat="45.77294392609118" lon="11.45488620704096"><ele>253.57142857142858</ele><time>2026-04-22T17:22:38Z</time></trkpt><trkpt lat="45.772931618077145" lon="11.454788793515828"><ele>253.8571428571429</ele><time>2026-04-22T17:22:43Z</time></trkpt><trkpt lat="45.77292964109215" lon="11.454680888463491"><ele>254.14285714285717</ele><time>2026-04-22T17:22:49Z</time></trkpt><trkpt lat="45.772921691877215" lon="11.454588260971503"><ele>254.42857142857144</ele><time>2026-04-22T17:22:54Z</time></trkpt><trkpt lat="45.77292290547052" lon="11.454492959142394"><ele>254.71428571428572</ele><time>2026-04-22T17:22:59Z</time></trkpt><trkpt lat="45.77291461215116" lon="11.454389979529283"><ele>255.0</ele><time>2026-04-22T17:23:05Z</time></trkpt><trkpt lat="45.77291223629596" lon="11.454289319071687"><ele>255.2857142857143</ele><time>2026-04-22T17:23:11Z</time></trkpt><trkpt lat="45.77292044060168" lon="11.454192514134427"><ele>255.5714285714286</ele><time>2026-04-22T17:23:16Z</time></trkpt><trkpt lat="45.772913523959815" lon="11.4540884890094"><ele>255.85714285714286</ele><time>2026-04-22T17:23:22Z</time></trkpt><trkpt lat="45.772903434340954" lon="11.453979875457962"><ele>256.14285714285717</ele><time>2026-04-22T17:23:28Z</time></trkpt><trkpt lat="45.77288617982346" lon="11.45387590108639"><ele>256.42857142857144</ele><time>2026-04-22T17:23:34Z</time></trkpt><trkpt lat="45.7728644689255" lon="11.453774453770556"><ele>256.7142857142857</ele><time>2026-04-22T17:23:40Z</time></trkpt><trkpt lat="45.772836419537946" lon="11.45367372713086"><ele>257.0</ele><time>2026-04-22T17:23:46Z</time></trkpt><trkpt lat="45.77280744810386" lon="11.453579668154838"><ele>257.0</ele><time>2026-04-22T17:23:52Z</time></trkpt><trkpt lat="45.77278576637437" lon="11.453476600931243"><ele>257.0</ele><time>2026-04-22T17:23:58Z</time></trkpt><trkpt lat="45.77276347879606" lon="11.453376914110866"><ele>257.0</ele><time>2026-04-22T17:24:03Z</time></trkpt><trkpt lat="45.77277408268415" lon="11.453277324205033"><ele>257.0</ele><time>2026-04-22T17:24:09Z</time></trkpt><trkpt lat="45.772775332494035" lon="11.453181357459243"><ele>257.0</ele><time>2026-04-22T17:24:15Z</time></trkpt><trkpt lat="45.77279498448949" lon="11.453077560574554"><ele>257.0</ele><time>2026-04-22T17:24:21Z</time></trkpt><trkpt lat="45.772798292561035" lon="11.45297130873149"><ele>257.0</ele><time>2026-04-22T17:24:27Z</time></trkpt><trkpt lat="45.772814286908435" lon="11.452878850933567"><ele>257.2857142857143</ele><time>2026-04-22T17:24:32Z</time></trkpt><trkpt lat="45.772838851466936" lon="11.452791695734543"><ele>257.57142857142856</ele><time>2026-04-22T17:24:36.999Z</time></trkpt><trkpt lat="45.77285992214308" lon="11.452705181257969"><ele>257.8571428571429</ele><time>2026-04-22T17:24:42.001Z</time></trkpt><trkpt lat="45.77287797692764" lon="11.452598756723194"><ele>258.1428571428571</ele><time>2026-04-22T17:24:48.001Z</time></trkpt><trkpt lat="45.77290304166783" lon="11.452497691944213"><ele>258.42857142857144</ele><time>2026-04-22T17:24:54Z</time></trkpt><trkpt lat="45.77292091754437" lon="11.452367048486341"><ele>258.7142857142857</ele><time>2026-04-22T17:25:01Z</time></trkpt><trkpt lat="45.77294855994314" lon="11.452279598144155"><ele>259.0</ele><time>2026-04-22T17:25:09Z</time></trkpt><trkpt lat="45.772980327914254" lon="11.452197893643328"><ele>259.0</ele><time>2026-04-22T17:25:13Z</time></trkpt><trkpt lat="45.77300620340027" lon="11.45210149841403"><ele>259.0</ele><time>2026-04-22T17:25:18Z</time></trkpt><trkpt lat="45.77304156163744" lon="11.452022714030935"><ele>259.0</ele><time>2026-04-22T17:25:23Z</time></trkpt><trkpt lat="45.7730730086111" lon="11.451926495545177"><ele>259.0</ele><time>2026-04-22T17:25:29Z</time></trkpt><trkpt lat="45.77310811926653" lon="11.451851465230916"><ele>259.0</ele><time>2026-04-22T17:25:34Z</time></trkpt><trkpt lat="45.77314675821757" lon="11.451773586968933"><ele>259.0</ele><time>2026-04-22T17:25:39Z</time></trkpt><trkpt lat="45.77318018466757" lon="11.451684179016318"><ele>259.0</ele><time>2026-04-22T17:25:44Z</time></trkpt><trkpt lat="45.773224833479574" lon="11.451598678169477"><ele>259.0</ele><time>2026-04-22T17:25:50Z</time></trkpt><trkpt lat="45.77326956657327" lon="11.451511463936225"><ele>259.0</ele><time>2026-04-22T17:25:56Z</time></trkpt><trkpt lat="45.77331586638485" lon="11.451443563949997"><ele>259.0</ele><time>2026-04-22T17:26:01Z</time></trkpt><trkpt lat="45.77336574184282" lon="11.451376309688012"><ele>259.0</ele><time>2026-04-22T17:26:06Z</time></trkpt><trkpt lat="45.773412918484176" lon="11.451314992192636"><ele>259.0</ele><time>2026-04-22T17:26:26Z</time></trkpt><trkpt lat="45.77346661954735" lon="11.45124657755637"><ele>259.0</ele><time>2026-04-22T17:26:32Z</time></trkpt><trkpt lat="45.77351807051608" lon="11.451180386259315"><ele>259.0</ele><time>2026-04-22T17:26:38Z</time></trkpt><trkpt lat="45.773571000696634" lon="11.451110170889038"><ele>259.2857142857143</ele><time>2026-04-22T17:26:43.999Z</time></trkpt><trkpt lat="45.7736262082327" lon="11.451039066780485"><ele>259.57142857142856</ele><time>2026-04-22T17:26:50Z</time></trkpt><trkpt lat="45.77367935625852" lon="11.45096738047349"><ele>259.8571428571429</ele><time>2026-04-22T17:26:56Z</time></trkpt><trkpt lat="45.77373418320909" lon="11.450903652156201"><ele>260.1428571428571</ele><time>2026-04-22T17:27:02Z</time></trkpt><trkpt lat="45.773790066814726" lon="11.45083745002198"><ele>260.42857142857144</ele><time>2026-04-22T17:27:08Z</time></trkpt><trkpt lat="45.773847804255915" lon="11.450766922723057"><ele>260.7142857142857</ele><time>2026-04-22T17:27:14Z</time></trkpt><trkpt lat="45.773894305866186" lon="11.450701620229129"><ele>261.0</ele><time>2026-04-22T17:27:19Z</time></trkpt><trkpt lat="45.773947884180366" lon="11.450625710240844"><ele>261.0</ele><time>2026-04-22T17:27:25Z</time></trkpt><trkpt lat="45.773994421986394" lon="11.450562490035807"><ele>261.0</ele><time>2026-04-22T17:27:30Z</time></trkpt><trkpt lat="45.77404399688438" lon="11.450502190662753"><ele>261.0</ele><time>2026-04-22T17:27:35Z</time></trkpt><trkpt lat="45.77409469816154" lon="11.450442209928898"><ele>261.0</ele><time>2026-04-22T17:27:40Z</time></trkpt><trkpt lat="45.77415047628914" lon="11.450376655002778"><ele>261.0</ele><time>2026-04-22T17:27:46Z</time></trkpt><trkpt lat="45.77419960800416" lon="11.450317451517849"><ele>261.0</ele><time>2026-04-22T17:27:51Z</time></trkpt><trkpt lat="45.77424965009205" lon="11.450253429127057"><ele>261.0</ele><time>2026-04-22T17:27:56Z</time></trkpt><trkpt lat="45.77430137502442" lon="11.45019271445336"><ele>261.57142857142856</ele><time>2026-04-22T17:28:01Z</time></trkpt><trkpt lat="45.77435704192882" lon="11.450130474833058"><ele>262.1428571428571</ele><time>2026-04-22T17:28:07Z</time></trkpt><trkpt lat="45.774404570695445" lon="11.450063331855159"><ele>262.71428571428567</ele><time>2026-04-22T17:28:12Z</time></trkpt><trkpt lat="45.77445471576597" lon="11.450002913371906"><ele>263.2857142857143</ele><time>2026-04-22T17:28:17Z</time></trkpt><trkpt lat="45.77450276007429" lon="11.449937185749535"><ele>263.85714285714283</ele><time>2026-04-22T17:28:22Z</time></trkpt><trkpt lat="45.77455225807592" lon="11.44987998098523"><ele>264.4285714285714</ele><time>2026-04-22T17:28:27Z</time></trkpt><trkpt lat="45.77461112761369" lon="11.44981288723515"><ele>265.0</ele><time>2026-04-22T17:28:33Z</time></trkpt><trkpt lat="45.77459766844001" lon="11.449708352439805"><ele>264.99999999999994</ele><time>2026-04-22T17:28:40.999Z</time></trkpt><trkpt lat="45.774581157069285" lon="11.44961058975038"><ele>265.0</ele><time>2026-04-22T17:28:46.999Z</time></trkpt><trkpt lat="45.77458958576854" lon="11.449508720142425"><ele>265.0</ele><time>2026-04-22T17:28:53Z</time></trkpt><trkpt lat="45.774649224383786" lon="11.44947824914955"><ele>265.0</ele><time>2026-04-22T17:28:59Z</time></trkpt><trkpt lat="45.77471018049972" lon="11.449504494276239"><ele>265.0</ele><time>2026-04-22T17:29:04Z</time></trkpt><trkpt lat="45.774783691369855" lon="11.449512683815046"><ele>264.99999999999994</ele><time>2026-04-22T17:29:10Z</time></trkpt><trkpt lat="45.77485855156264" lon="11.449499071033845"><ele>265.0</ele><time>2026-04-22T17:29:16Z</time></trkpt><trkpt lat="45.77492629858851" lon="11.449474259105752"><ele>264.99999999999994</ele><time>2026-04-22T17:29:21Z</time></trkpt><trkpt lat="45.77499151848947" lon="11.449456090004709"><ele>265.0</ele><time>2026-04-22T17:29:26Z</time></trkpt><trkpt lat="45.77505650013258" lon="11.449439971950605"><ele>265.0</ele><time>2026-04-22T17:29:31Z</time></trkpt><trkpt lat="45.775112810551924" lon="11.449395339137727"><ele>265.0</ele><time>2026-04-22T17:29:36Z</time></trkpt><trkpt lat="45.77516080352126" lon="11.44932988700497"><ele>265.0</ele><time>2026-04-22T17:29:41Z</time></trkpt><trkpt lat="45.775209457680106" lon="11.449267994310913"><ele>264.99999999999994</ele><time>2026-04-22T17:29:46Z</time></trkpt><trkpt lat="45.77526467999878" lon="11.449219195649539"><ele>265.0</ele><time>2026-04-22T17:29:51Z</time></trkpt><trkpt lat="45.77533208343501" lon="11.44918015739148"><ele>265.71428571428567</ele><time>2026-04-22T17:29:57Z</time></trkpt><trkpt lat="45.77539735424328" lon="11.449177971637956"><ele>266.42857142857144</ele><time>2026-04-22T17:30:02Z</time></trkpt><trkpt lat="45.77547144939877" lon="11.449195137546786"><ele>267.1428571428571</ele><time>2026-04-22T17:30:08Z</time></trkpt><trkpt lat="45.77554179693746" lon="11.449201478801555"><ele>267.85714285714283</ele><time>2026-04-22T17:30:14Z</time></trkpt><trkpt lat="45.77559891035623" lon="11.449161936454587"><ele>268.57142857142856</ele><time>2026-04-22T17:30:19Z</time></trkpt><trkpt lat="45.77564475197421" lon="11.449094882809598"><ele>269.2857142857143</ele><time>2026-04-22T17:30:25Z</time></trkpt><trkpt lat="45.77569202690349" lon="11.449023108241105"><ele>270.0</ele><time>2026-04-22T17:30:30Z</time></trkpt><trkpt lat="45.77573452404689" lon="11.448950359167505"><ele>270.0</ele><time>2026-04-22T17:30:34.999Z</time></trkpt><trkpt lat="45.775777648156655" lon="11.448880901045861"><ele>270.0</ele><time>2026-04-22T17:30:39.999Z</time></trkpt><trkpt lat="45.7758175417654" lon="11.448804895020563"><ele>270.0</ele><time>2026-04-22T17:30:44.999Z</time></trkpt><trkpt lat="45.77585716809444" lon="11.44872789986754"><ele>270.0</ele><time>2026-04-22T17:30:49.999Z</time></trkpt><trkpt lat="45.775903521681435" lon="11.448645143996584"><ele>270.0</ele><time>2026-04-22T17:30:55.999Z</time></trkpt><trkpt lat="45.77595099257433" lon="11.448568002548893"><ele>270.0</ele><time>2026-04-22T17:31:02Z</time></trkpt><trkpt lat="45.775993369968106" lon="11.448492614503774"><ele>270.0</ele><time>2026-04-22T17:31:09Z</time></trkpt><trkpt lat="45.77604680159506" lon="11.448434342280366"><ele>269.57142857142856</ele><time>2026-04-22T17:32:03Z</time></trkpt><trkpt lat="45.77608197306609" lon="11.448351411976766"><ele>269.1428571428571</ele><time>2026-04-22T17:32:09Z</time></trkpt><trkpt lat="45.77611380535755" lon="11.448265968599289"><ele>268.7142857142857</ele><time>2026-04-22T17:32:15Z</time></trkpt><trkpt lat="45.776115925257834" lon="11.448169611471814"><ele>268.2857142857143</ele><time>2026-04-22T17:32:20Z</time></trkpt><trkpt lat="45.77607849522825" lon="11.448087691273834"><ele>267.8571428571429</ele><time>2026-04-22T17:32:25Z</time></trkpt><trkpt lat="45.7760264257849" lon="11.448028945791377"><ele>267.42857142857144</ele><time>2026-04-22T17:32:30Z</time></trkpt><trkpt lat="45.77596517096388" lon="11.447970061419245"><ele>267.0</ele><time>2026-04-22T17:32:36Z</time></trkpt><trkpt lat="45.77590875385414" lon="11.447903891989913"><ele>266.42857142857144</ele><time>2026-04-22T17:32:42Z</time></trkpt><trkpt lat="45.77585901057576" lon="11.447844422983628"><ele>265.8571428571429</ele><time>2026-04-22T17:32:47Z</time></trkpt><trkpt lat="45.775808001648215" lon="11.447768975353638"><ele>265.2857142857143</ele><time>2026-04-22T17:32:53Z</time></trkpt><trkpt lat="45.77574281087413" lon="11.447714200619101"><ele>264.7142857142857</ele><time>2026-04-22T17:32:59Z</time></trkpt><trkpt lat="45.77568819183731" lon="11.447658414077358"><ele>264.1428571428571</ele><time>2026-04-22T17:33:04Z</time></trkpt><trkpt lat="45.77563414239392" lon="11.447599278261597"><ele>263.57142857142856</ele><time>2026-04-22T17:33:09Z</time></trkpt><trkpt lat="45.7755763509058" lon="11.447549512470097"><ele>263.0</ele><time>2026-04-22T17:33:14Z</time></trkpt><trkpt lat="45.775526649580954" lon="11.447491600814388"><ele>263.0</ele><time>2026-04-22T17:33:19Z</time></trkpt><trkpt lat="45.77547013450557" lon="11.447444086088185"><ele>263.0</ele><time>2026-04-22T17:33:24Z</time></trkpt><trkpt lat="45.77541352011408" lon="11.447371919616442"><ele>263.0</ele><time>2026-04-22T17:33:30Z</time></trkpt><trkpt lat="45.775357354765966" lon="11.44731463562246"><ele>263.0</ele><time>2026-04-22T17:33:35Z</time></trkpt><trkpt lat="45.775304748855845" lon="11.447257489449608"><ele>263.0</ele><time>2026-04-22T17:33:40Z</time></trkpt><trkpt lat="45.775245280197346" lon="11.447190050347778"><ele>263.0</ele><time>2026-04-22T17:33:46Z</time></trkpt><trkpt lat="45.77519360605088" lon="11.447138338577764"><ele>263.0</ele><time>2026-04-22T17:33:51Z</time></trkpt><trkpt lat="45.77513831478944" lon="11.44708468004349"><ele>263.42857142857144</ele><time>2026-04-22T17:33:56Z</time></trkpt><trkpt lat="45.775091582256984" lon="11.447018038164932"><ele>263.85714285714283</ele><time>2026-04-22T17:34:01Z</time></trkpt><trkpt lat="45.775037996208624" lon="11.446964407622978"><ele>264.2857142857143</ele><time>2026-04-22T17:34:06Z</time></trkpt><trkpt lat="45.77498787673968" lon="11.446904201014776"><ele>264.7142857142857</ele><time>2026-04-22T17:34:11Z</time></trkpt><trkpt lat="45.77493303299529" lon="11.446845478821452"><ele>265.1428571428571</ele><time>2026-04-22T17:34:16Z</time></trkpt><trkpt lat="45.774878142397256" lon="11.446787226387755"><ele>265.57142857142856</ele><time>2026-04-22T17:34:21Z</time></trkpt><trkpt lat="45.77481554883776" lon="11.446727575162061"><ele>266.0</ele><time>2026-04-22T17:34:27Z</time></trkpt><trkpt lat="45.774758985453346" lon="11.446682237723062"><ele>266.0</ele><time>2026-04-22T17:34:32Z</time></trkpt><trkpt lat="45.7747105507999" lon="11.44661434727384"><ele>266.0</ele><time>2026-04-22T17:34:37Z</time></trkpt><trkpt lat="45.77465842195983" lon="11.446553380331599"><ele>266.0</ele><time>2026-04-22T17:34:42Z</time></trkpt><trkpt lat="45.7746001152385" lon="11.446484437644337"><ele>266.0</ele><time>2026-04-22T17:34:48Z</time></trkpt><trkpt lat="45.774535539888284" lon="11.446429979882213"><ele>266.0</ele><time>2026-04-22T17:34:54Z</time></trkpt><trkpt lat="45.77450346402181" lon="11.44632971261176"><ele>266.0</ele><time>2026-04-22T17:35:00Z</time></trkpt><trkpt lat="45.77446326520252" lon="11.446253769786047"><ele>266.0</ele><time>2026-04-22T17:35:05Z</time></trkpt><trkpt lat="45.77442884559801" lon="11.446176758797545"><ele>266.0</ele><time>2026-04-22T17:35:10.001Z</time></trkpt><trkpt lat="45.7743938426466" lon="11.44608299447784"><ele>266.0</ele><time>2026-04-22T17:35:16.001Z</time></trkpt><trkpt lat="45.77441606614755" lon="11.44598828352058"><ele>266.0</ele><time>2026-04-22T17:35:21.001Z</time></trkpt><trkpt lat="45.774461269182005" lon="11.445924630246259"><ele>266.0</ele><time>2026-04-22T17:35:26.001Z</time></trkpt><trkpt lat="45.774523391527225" lon="11.44587652130273"><ele>266.0</ele><time>2026-04-22T17:35:31.001Z</time></trkpt><trkpt lat="45.77458356304466" lon="11.44582684155908"><ele>266.0</ele><time>2026-04-22T17:35:37.001Z</time></trkpt><trkpt lat="45.77464890685551" lon="11.445781398304602"><ele>266.0</ele><time>2026-04-22T17:35:42Z</time></trkpt><trkpt lat="45.774709451842895" lon="11.445747807223897"><ele>266.0</ele><time>2026-04-22T17:35:47Z</time></trkpt><trkpt lat="45.774768436133066" lon="11.445695936720776"><ele>266.0</ele><time>2026-04-22T17:35:52Z</time></trkpt><trkpt lat="45.77483057272196" lon="11.445669836348701"><ele>266.0</ele><time>2026-04-22T17:35:57Z</time></trkpt><trkpt lat="45.77488954140561" lon="11.445616384985296"><ele>266.0</ele><time>2026-04-22T17:36:02Z</time></trkpt><trkpt lat="45.77494768064496" lon="11.445562320843583"><ele>266.0</ele><time>2026-04-22T17:36:07Z</time></trkpt><trkpt lat="45.77499170976559" lon="11.445494695934883"><ele>266.0</ele><time>2026-04-22T17:36:12Z</time></trkpt><trkpt lat="45.77503557252938" lon="11.445406281532017"><ele>266.0</ele><time>2026-04-22T17:36:18Z</time></trkpt><trkpt lat="45.77506281391374" lon="11.445321390748804"><ele>266.14285714285717</ele><time>2026-04-22T17:36:23Z</time></trkpt><trkpt lat="45.77508671339311" lon="11.445228008118574"><ele>266.2857142857143</ele><time>2026-04-22T17:36:28Z</time></trkpt><trkpt lat="45.775116928804216" lon="11.44514781553686"><ele>266.42857142857144</ele><time>2026-04-22T17:36:33Z</time></trkpt><trkpt lat="45.775144332648225" lon="11.445061252742939"><ele>266.57142857142856</ele><time>2026-04-22T17:36:38Z</time></trkpt><trkpt lat="45.77517993640194" lon="11.444986330790123"><ele>266.7142857142857</ele><time>2026-04-22T17:36:43Z</time></trkpt><trkpt lat="45.77520693003786" lon="11.444889628969449"><ele>266.8571428571429</ele><time>2026-04-22T17:36:48Z</time></trkpt><trkpt lat="45.77522989941189" lon="11.444799380257594"><ele>267.0</ele><time>2026-04-22T17:36:53Z</time></trkpt><trkpt lat="45.7752609491036" lon="11.444715748858723"><ele>267.00000000000006</ele><time>2026-04-22T17:36:58Z</time></trkpt><trkpt lat="45.775304835284274" lon="11.444639853756511"><ele>267.0</ele><time>2026-04-22T17:37:03Z</time></trkpt><trkpt lat="45.775328817272666" lon="11.444549776158196"><ele>267.0</ele><time>2026-04-22T17:37:08Z</time></trkpt><trkpt lat="45.77535775681042" lon="11.444459657263787"><ele>267.0</ele><time>2026-04-22T17:37:13Z</time></trkpt><trkpt lat="45.77539680146286" lon="11.444381969904644"><ele>267.0</ele><time>2026-04-22T17:37:18.001Z</time></trkpt><trkpt lat="45.77542510202363" lon="11.444296647611692"><ele>267.00000000000006</ele><time>2026-04-22T17:37:23.001Z</time></trkpt><trkpt lat="45.77546612417467" lon="11.444218220085675"><ele>267.0</ele><time>2026-04-22T17:37:28.001Z</time></trkpt><trkpt lat="45.77550247585184" lon="11.444136306743639"><ele>267.00000000000006</ele><time>2026-04-22T17:37:33.001Z</time></trkpt><trkpt lat="45.77551650299477" lon="11.444038900472417"><ele>267.0</ele><time>2026-04-22T17:37:38.001Z</time></trkpt><trkpt lat="45.77549196250845" lon="11.44394997732304"><ele>267.0</ele><time>2026-04-22T17:37:43.001Z</time></trkpt><trkpt lat="45.775433997248236" lon="11.443877911085803"><ele>267.0</ele><time>2026-04-22T17:37:48.001Z</time></trkpt><trkpt lat="45.775376890065246" lon="11.443822732100784"><ele>267.0</ele><time>2026-04-22T17:37:53Z</time></trkpt><trkpt lat="45.77531402432526" lon="11.44378167141558"><ele>267.00000000000006</ele><time>2026-04-22T17:37:58Z</time></trkpt><trkpt lat="45.77525689926491" lon="11.443734472532775"><ele>267.0</ele><time>2026-04-22T17:38:03Z</time></trkpt><trkpt lat="45.77519677240659" lon="11.443669162989739"><ele>266.8571428571429</ele><time>2026-04-22T17:38:09Z</time></trkpt><trkpt lat="45.775136730863665" lon="11.443629581862488"><ele>266.7142857142857</ele><time>2026-04-22T17:38:14Z</time></trkpt><trkpt lat="45.77507927220233" lon="11.443584459247775"><ele>266.57142857142856</ele><time>2026-04-22T17:38:31Z</time></trkpt><trkpt lat="45.77501720828063" lon="11.44354252558576"><ele>266.42857142857144</ele><time>2026-04-22T17:38:36Z</time></trkpt><trkpt lat="45.774965648114204" lon="11.443477441402832"><ele>266.2857142857143</ele><time>2026-04-22T17:38:41Z</time></trkpt><trkpt lat="45.77491281212894" lon="11.4434196126003"><ele>266.14285714285717</ele><time>2026-04-22T17:38:46Z</time></trkpt><trkpt lat="45.77485926973149" lon="11.443365846135475"><ele>266.0</ele><time>2026-04-22T17:38:51Z</time></trkpt><trkpt lat="45.77480867486162" lon="11.443295982846426"><ele>266.0</ele><time>2026-04-22T17:38:57Z</time></trkpt><trkpt lat="45.77476361169438" lon="11.443232927254094"><ele>266.0</ele><time>2026-04-22T17:39:02Z</time></trkpt><trkpt lat="45.774708499410536" lon="11.443160659138915"><ele>266.0</ele><time>2026-04-22T17:39:08Z</time></trkpt><trkpt lat="45.774689623766385" lon="11.443067645509778"><ele>266.0</ele><time>2026-04-22T17:39:14Z</time></trkpt><trkpt lat="45.774697614926836" lon="11.442963372146993"><ele>264.0</ele><time>2026-04-22T17:39:20Z</time></trkpt><trkpt lat="45.774658025019" lon="11.442887843308776"><ele>264.0</ele><time>2026-04-22T17:39:26.001Z</time></trkpt></trkseg></trk></gpx>